FDB8458 OMDB-ZBAD
Flight info
| Callsign | FDB8458 |
|---|---|
| Flight time | 6h 31m |
| Altitude | 33000 |
| Route | DAVMO DCT KHM DCT PAVON A453 GADER/N0452F290 A453 OGOGO/N0456F330 A453 NOLEX/N0446F290 A453 TAPIS/N0453F350 G206 PURPA/K0837S1070 B215 MAGIV W187 SADAN DCT ESDEX/K0819S1130 DCT NUKTI W66 DKO W64 ELAPU ELAPU5L |
| Aircraft | B39M/M-SDE2E3FGHIRWXY/LB1 |
Departure
| Time | 2026-04-17 22:32 |
|---|---|
| Airport | Dubai International Airport (OMDB) |
Arrival
| Time | 2026-04-18 05:03 |
|---|---|
| Airport | Beijing Daxing International Airport (ZBAD) |
| Time | Latitude | Longitude | Altitude | Speed | Heading |
|---|---|---|---|---|---|
| 2026-04-17 21:51 | 25.26607 | 55.35497 | 29 ft | 0 kts | 31° |
| 2026-04-17 22:17 | 25.26595 | 55.35490 | 29 ft | 2 kts | 31° |
| 2026-04-17 22:17 | 25.26582 | 55.35480 | 29 ft | 2 kts | 31° |
| 2026-04-17 22:17 | 25.26569 | 55.35471 | 29 ft | 2 kts | 46° |
| 2026-04-17 22:17 | 25.26560 | 55.35458 | 29 ft | 2 kts | 63° |
| 2026-04-17 22:18 | 25.26556 | 55.35442 | 29 ft | 2 kts | 81° |
| 2026-04-17 22:18 | 25.26555 | 55.35426 | 29 ft | 2 kts | 98° |
| 2026-04-17 22:18 | 25.26559 | 55.35410 | 29 ft | 2 kts | 116° |
| 2026-04-17 22:18 | 25.26568 | 55.35395 | 29 ft | 2 kts | 122° |
| 2026-04-17 22:19 | 25.26575 | 55.35381 | 29 ft | 2 kts | 120° |
| 2026-04-17 22:19 | 25.26578 | 55.35376 | 29 ft | 0 kts | 121° |
| 2026-04-17 22:19 | 25.26577 | 55.35376 | 29 ft | 0 kts | 121° |
| 2026-04-17 22:24 | 25.26568 | 55.35393 | 29 ft | 5 kts | 121° |
| 2026-04-17 22:24 | 25.26542 | 55.35441 | 29 ft | 9 kts | 121° |
| 2026-04-17 22:24 | 25.26501 | 55.35515 | 29 ft | 12 kts | 122° |
| 2026-04-17 22:24 | 25.26449 | 55.35607 | 30 ft | 15 kts | 121° |
| 2026-04-17 22:25 | 25.26388 | 55.35718 | 31 ft | 17 kts | 121° |
| 2026-04-17 22:25 | 25.26324 | 55.35834 | 32 ft | 17 kts | 121° |
| 2026-04-17 22:25 | 25.26262 | 55.35949 | 35 ft | 16 kts | 120° |
| 2026-04-17 22:25 | 25.26199 | 55.36063 | 36 ft | 16 kts | 122° |
| 2026-04-17 22:26 | 25.26133 | 55.36180 | 36 ft | 17 kts | 121° |
| 2026-04-17 22:26 | 25.26067 | 55.36302 | 38 ft | 17 kts | 121° |
| 2026-04-17 22:26 | 25.25999 | 55.36423 | 39 ft | 17 kts | 122° |
| 2026-04-17 22:26 | 25.25929 | 55.36546 | 39 ft | 18 kts | 121° |
| 2026-04-17 22:27 | 25.25856 | 55.36679 | 39 ft | 19 kts | 121° |
| 2026-04-17 22:27 | 25.25782 | 55.36811 | 42 ft | 19 kts | 121° |
| 2026-04-17 22:27 | 25.25709 | 55.36943 | 42 ft | 19 kts | 121° |
| 2026-04-17 22:27 | 25.25632 | 55.37081 | 44 ft | 20 kts | 121° |
| 2026-04-17 22:28 | 25.25559 | 55.37213 | 45 ft | 20 kts | 121° |
| 2026-04-17 22:28 | 25.25483 | 55.37352 | 45 ft | 21 kts | 122° |
| 2026-04-17 22:28 | 25.25402 | 55.37497 | 45 ft | 22 kts | 121° |
| 2026-04-17 22:28 | 25.25319 | 55.37645 | 48 ft | 22 kts | 122° |
| 2026-04-17 22:29 | 25.25236 | 55.37794 | 49 ft | 23 kts | 120° |
| 2026-04-17 22:29 | 25.25150 | 55.37951 | 49 ft | 24 kts | 121° |
| 2026-04-17 22:29 | 25.25061 | 55.38112 | 51 ft | 24 kts | 121° |
| 2026-04-17 22:29 | 25.24983 | 55.38246 | 52 ft | 12 kts | 140° |
| 2026-04-17 22:30 | 25.24914 | 55.38236 | 52 ft | 10 kts | 211° |
| 2026-04-17 22:30 | 25.24847 | 55.38187 | 52 ft | 11 kts | 212° |
| 2026-04-17 22:30 | 25.24776 | 55.38140 | 52 ft | 4 kts | 213° |
| 2026-04-17 22:30 | 25.24764 | 55.38113 | 52 ft | 3 kts | 274° |
| 2026-04-17 22:31 | 25.24779 | 55.38080 | 52 ft | 8 kts | 302° |
| 2026-04-17 22:31 | 25.24936 | 55.37793 | 49 ft | 79 kts | 301° |
| 2026-04-17 22:31 | 25.25357 | 55.37035 | 45 ft | 143 kts | 301° |
| 2026-04-17 22:31 | 25.25972 | 55.35945 | 177 ft | 180 kts | 300° |
| 2026-04-17 22:32 | 25.26603 | 55.34832 | 1093 ft | 171 kts | 299° |
| 2026-04-17 22:32 | 25.27220 | 55.33737 | 1900 ft | 168 kts | 299° |
| 2026-04-17 22:32 | 25.27808 | 55.32641 | 2443 ft | 173 kts | 300° |
| 2026-04-17 22:32 | 25.28430 | 55.31462 | 2955 ft | 180 kts | 302° |
| 2026-04-17 22:33 | 25.29263 | 55.30417 | 3481 ft | 189 kts | 321° |
| 2026-04-17 22:33 | 25.30470 | 55.29728 | 4027 ft | 199 kts | 339° |
| 2026-04-17 22:33 | 25.31907 | 55.29478 | 4674 ft | 206 kts | 355° |
| 2026-04-17 22:33 | 25.33376 | 55.29509 | 5317 ft | 207 kts | 357° |
| 2026-04-17 22:34 | 25.34867 | 55.29570 | 6030 ft | 205 kts | 357° |
| 2026-04-17 22:34 | 25.36388 | 55.29629 | 6458 ft | 218 kts | 358° |
| 2026-04-17 22:34 | 25.38058 | 55.29668 | 6684 ft | 243 kts | 356° |
| 2026-04-17 22:34 | 25.39858 | 55.29677 | 7292 ft | 249 kts | 356° |
| 2026-04-17 22:35 | 25.41654 | 55.29750 | 8054 ft | 251 kts | 7° |
| 2026-04-17 22:35 | 25.43388 | 55.30562 | 8473 ft | 272 kts | 30° |
| 2026-04-17 22:35 | 25.45047 | 55.31812 | 9040 ft | 279 kts | 28° |
| 2026-04-17 22:35 | 25.46801 | 55.32906 | 9661 ft | 283 kts | 23° |
| 2026-04-17 22:36 | 25.48663 | 55.33859 | 10286 ft | 287 kts | 20° |
| 2026-04-17 22:36 | 25.50586 | 55.34753 | 10862 ft | 293 kts | 19° |
| 2026-04-17 22:36 | 25.52569 | 55.35653 | 11361 ft | 301 kts | 19° |
| 2026-04-17 22:36 | 25.54605 | 55.36584 | 11862 ft | 309 kts | 20° |
| 2026-04-17 22:37 | 25.56695 | 55.37553 | 12362 ft | 317 kts | 21° |
| 2026-04-17 22:37 | 25.58784 | 55.38777 | 12871 ft | 326 kts | 29° |
| 2026-04-17 22:37 | 25.60701 | 55.40194 | 13356 ft | 334 kts | 32° |
| 2026-04-17 22:37 | 25.62568 | 55.41677 | 13827 ft | 340 kts | 33° |
| 2026-04-17 22:38 | 25.64560 | 55.43280 | 14324 ft | 346 kts | 33° |
| 2026-04-17 22:38 | 25.66526 | 55.44863 | 14805 ft | 352 kts | 34° |
| 2026-04-17 22:38 | 25.68506 | 55.46663 | 15304 ft | 359 kts | 38° |
| 2026-04-17 22:38 | 25.70406 | 55.48631 | 15802 ft | 365 kts | 40° |
| 2026-04-17 22:39 | 25.72296 | 55.50680 | 16300 ft | 370 kts | 41° |
| 2026-04-17 22:39 | 25.74229 | 55.52781 | 16804 ft | 374 kts | 41° |
| 2026-04-17 22:39 | 25.78042 | 55.56858 | 17778 ft | 381 kts | 40° |
| 2026-04-17 22:40 | 25.80038 | 55.58966 | 18284 ft | 384 kts | 39° |
| 2026-04-17 22:40 | 25.82056 | 55.61089 | 18792 ft | 386 kts | 40° |
| 2026-04-17 22:40 | 25.84150 | 55.63212 | 19306 ft | 387 kts | 36° |
| 2026-04-17 22:40 | 25.86416 | 55.65023 | 19815 ft | 385 kts | 26° |
| 2026-04-17 22:41 | 25.88919 | 55.66306 | 20322 ft | 382 kts | 15° |
| 2026-04-17 22:41 | 25.91566 | 55.67150 | 20771 ft | 382 kts | 9° |
| 2026-04-17 22:41 | 25.94316 | 55.67820 | 21214 ft | 384 kts | 8° |
| 2026-04-17 22:41 | 25.97070 | 55.68451 | 21654 ft | 387 kts | 8° |
| 2026-04-17 22:42 | 25.99746 | 55.69093 | 22079 ft | 389 kts | 9° |
| 2026-04-17 22:42 | 26.02511 | 55.69799 | 22518 ft | 391 kts | 9° |
| 2026-04-17 22:42 | 26.05199 | 55.70519 | 22945 ft | 393 kts | 10° |
| 2026-04-17 22:42 | 26.07859 | 55.71252 | 23376 ft | 394 kts | 10° |
| 2026-04-17 22:43 | 26.10575 | 55.72013 | 23818 ft | 395 kts | 10° |
| 2026-04-17 22:43 | 26.13281 | 55.72776 | 24258 ft | 396 kts | 10° |
| 2026-04-17 22:43 | 26.16021 | 55.73554 | 24703 ft | 397 kts | 11° |
| 2026-04-17 22:43 | 26.18749 | 55.74332 | 25147 ft | 397 kts | 10° |
| 2026-04-17 22:44 | 26.21396 | 55.75086 | 25578 ft | 396 kts | 10° |
| 2026-04-17 22:44 | 26.24119 | 55.75859 | 26022 ft | 396 kts | 10° |
| 2026-04-17 22:44 | 26.26910 | 55.76652 | 26407 ft | 397 kts | 10° |
| 2026-04-17 22:44 | 26.29568 | 55.77404 | 26738 ft | 399 kts | 10° |
| 2026-04-17 22:45 | 26.32249 | 55.78164 | 27072 ft | 399 kts | 10° |
| 2026-04-17 22:45 | 26.34994 | 55.78945 | 27414 ft | 399 kts | 10° |
| 2026-04-17 22:45 | 26.37741 | 55.79728 | 27759 ft | 398 kts | 10° |
| 2026-04-17 22:45 | 26.40555 | 55.80529 | 28111 ft | 396 kts | 10° |
| 2026-04-17 22:46 | 26.43341 | 55.81324 | 28462 ft | 395 kts | 10° |
| 2026-04-17 22:46 | 26.46108 | 55.82114 | 28811 ft | 393 kts | 10° |
| 2026-04-17 22:46 | 26.48853 | 55.82898 | 29095 ft | 393 kts | 10° |
| 2026-04-17 22:46 | 26.51587 | 55.83678 | 29361 ft | 393 kts | 10° |
| 2026-04-17 22:47 | 26.54362 | 55.84470 | 29633 ft | 393 kts | 10° |
| 2026-04-17 22:47 | 26.57126 | 55.85260 | 29909 ft | 392 kts | 10° |
| 2026-04-17 22:47 | 26.59894 | 55.86051 | 30182 ft | 391 kts | 10° |
| 2026-04-17 22:47 | 26.62656 | 55.86841 | 30456 ft | 390 kts | 10° |
| 2026-04-17 22:48 | 26.65365 | 55.87616 | 30638 ft | 392 kts | 10° |
| 2026-04-17 22:48 | 26.68146 | 55.88411 | 30695 ft | 397 kts | 10° |
| 2026-04-17 22:48 | 26.73775 | 55.90068 | 30809 ft | 407 kts | 14° |
| 2026-04-17 22:49 | 26.79203 | 55.92817 | 30918 ft | 422 kts | 28° |
| 2026-04-17 22:49 | 26.84103 | 55.97142 | 31030 ft | 436 kts | 43° |
| 2026-04-17 22:50 | 26.88322 | 56.02264 | 31339 ft | 440 kts | 45° |
| 2026-04-17 22:50 | 26.90450 | 56.04897 | 31609 ft | 438 kts | 44° |
| 2026-04-17 22:50 | 26.92610 | 56.07490 | 31882 ft | 437 kts | 43° |
| 2026-04-17 22:51 | 26.94802 | 56.10033 | 32155 ft | 435 kts | 42° |
| 2026-04-17 22:51 | 26.97049 | 56.12565 | 32433 ft | 433 kts | 41° |
| 2026-04-17 22:51 | 26.99269 | 56.15015 | 32706 ft | 431 kts | 41° |
| 2026-04-17 22:51 | 27.01496 | 56.17482 | 32850 ft | 433 kts | 44° |
| 2026-04-17 22:52 | 27.05416 | 56.23135 | 32869 ft | 446 kts | 54° |
| 2026-04-17 22:52 | 27.08832 | 56.29374 | 32859 ft | 457 kts | 57° |
| 2026-04-17 22:53 | 27.12235 | 56.35855 | 32861 ft | 467 kts | 57° |
| 2026-04-17 22:53 | 27.15703 | 56.42448 | 32863 ft | 476 kts | 58° |
| 2026-04-17 22:54 | 27.19247 | 56.49159 | 32876 ft | 485 kts | 57° |
| 2026-04-17 22:54 | 27.22826 | 56.55927 | 32874 ft | 487 kts | 57° |
| 2026-04-17 22:55 | 27.26433 | 56.62752 | 32881 ft | 486 kts | 58° |
| 2026-04-17 22:55 | 27.30026 | 56.69553 | 32889 ft | 487 kts | 58° |
| 2026-04-17 22:56 | 27.33640 | 56.76398 | 32887 ft | 487 kts | 58° |
| 2026-04-17 22:56 | 27.37232 | 56.83214 | 32903 ft | 487 kts | 58° |
| 2026-04-17 22:57 | 27.40816 | 56.90022 | 32917 ft | 486 kts | 58° |
| 2026-04-17 22:57 | 27.44396 | 56.96838 | 32939 ft | 486 kts | 58° |
| 2026-04-17 22:58 | 27.47981 | 57.03672 | 32941 ft | 486 kts | 58° |
| 2026-04-17 22:58 | 27.51541 | 57.10468 | 32944 ft | 487 kts | 58° |
| 2026-04-17 22:59 | 27.55139 | 57.17353 | 32943 ft | 488 kts | 58° |
| 2026-04-17 22:59 | 27.58745 | 57.24260 | 32940 ft | 487 kts | 58° |
| 2026-04-17 23:00 | 27.62351 | 57.31175 | 32937 ft | 488 kts | 58° |
| 2026-04-17 23:00 | 27.65916 | 57.38019 | 32952 ft | 487 kts | 58° |
| 2026-04-17 23:01 | 27.69496 | 57.44907 | 32959 ft | 488 kts | 58° |
| 2026-04-17 23:01 | 27.73054 | 57.51769 | 32972 ft | 489 kts | 58° |
| 2026-04-17 23:02 | 27.76600 | 57.58619 | 32980 ft | 488 kts | 58° |
| 2026-04-17 23:02 | 27.80141 | 57.65462 | 32989 ft | 488 kts | 59° |
| 2026-04-17 23:03 | 27.83717 | 57.72382 | 32985 ft | 489 kts | 59° |
| 2026-04-17 23:03 | 27.87294 | 57.79314 | 32964 ft | 490 kts | 59° |
| 2026-04-17 23:04 | 27.90896 | 57.86320 | 32948 ft | 490 kts | 59° |
| 2026-04-17 23:04 | 27.94455 | 57.93248 | 32937 ft | 490 kts | 59° |
| 2026-04-17 23:05 | 27.98009 | 58.00176 | 32933 ft | 490 kts | 59° |
| 2026-04-17 23:05 | 28.01579 | 58.07145 | 32934 ft | 491 kts | 59° |
| 2026-04-17 23:06 | 28.05133 | 58.14097 | 32956 ft | 490 kts | 59° |
| 2026-04-17 23:06 | 28.08666 | 58.21020 | 32967 ft | 490 kts | 59° |
| 2026-04-17 23:07 | 28.12230 | 58.28015 | 32983 ft | 491 kts | 59° |
| 2026-04-17 23:07 | 28.15773 | 58.34983 | 33006 ft | 491 kts | 59° |
| 2026-04-17 23:08 | 28.19360 | 58.42049 | 33019 ft | 492 kts | 59° |
| 2026-04-17 23:08 | 28.22926 | 58.49083 | 33042 ft | 492 kts | 59° |
| 2026-04-17 23:09 | 28.26468 | 58.56076 | 33066 ft | 493 kts | 59° |
| 2026-04-17 23:09 | 28.29996 | 58.63054 | 33089 ft | 492 kts | 59° |
| 2026-04-17 23:10 | 28.33547 | 58.70094 | 33095 ft | 492 kts | 60° |
| 2026-04-17 23:10 | 28.37069 | 58.77089 | 33087 ft | 493 kts | 60° |
| 2026-04-17 23:11 | 28.40596 | 58.84103 | 33064 ft | 493 kts | 59° |
| 2026-04-17 23:11 | 28.44155 | 58.91191 | 33038 ft | 493 kts | 59° |
| 2026-04-17 23:12 | 28.47681 | 58.98227 | 33021 ft | 495 kts | 59° |
| 2026-04-17 23:12 | 28.51208 | 59.05277 | 33008 ft | 494 kts | 59° |
| 2026-04-17 23:13 | 28.54771 | 59.12407 | 33001 ft | 495 kts | 59° |
| 2026-04-17 23:13 | 28.58275 | 59.19434 | 32998 ft | 494 kts | 60° |
| 2026-04-17 23:14 | 28.61785 | 59.26488 | 32996 ft | 494 kts | 60° |
| 2026-04-17 23:14 | 28.65322 | 59.33614 | 33005 ft | 493 kts | 60° |
| 2026-04-17 23:15 | 28.68813 | 59.40660 | 33008 ft | 495 kts | 60° |
| 2026-04-17 23:15 | 28.72320 | 59.47745 | 33020 ft | 495 kts | 60° |
| 2026-04-17 23:16 | 28.75842 | 59.54871 | 33019 ft | 497 kts | 60° |
| 2026-04-17 23:16 | 28.79367 | 59.62014 | 33031 ft | 498 kts | 60° |
| 2026-04-17 23:17 | 28.82879 | 59.69149 | 33031 ft | 497 kts | 60° |
| 2026-04-17 23:17 | 28.86392 | 59.76293 | 33031 ft | 497 kts | 61° |
| 2026-04-17 23:18 | 28.89907 | 59.83453 | 33045 ft | 498 kts | 60° |
| 2026-04-17 23:18 | 28.93414 | 59.90608 | 33051 ft | 497 kts | 61° |
| 2026-04-17 23:19 | 28.96903 | 59.97744 | 33059 ft | 499 kts | 61° |
| 2026-04-17 23:19 | 29.00408 | 60.04918 | 33068 ft | 498 kts | 61° |
| 2026-04-17 23:20 | 29.03891 | 60.12061 | 33103 ft | 499 kts | 61° |
| 2026-04-17 23:20 | 29.07400 | 60.19273 | 33126 ft | 500 kts | 61° |
| 2026-04-17 23:21 | 29.10882 | 60.26445 | 33153 ft | 499 kts | 61° |
| 2026-04-17 23:21 | 29.14397 | 60.33693 | 33166 ft | 499 kts | 61° |
| 2026-04-17 23:22 | 29.17891 | 60.40912 | 33169 ft | 500 kts | 61° |
| 2026-04-17 23:22 | 29.21389 | 60.48152 | 33172 ft | 499 kts | 61° |
| 2026-04-17 23:23 | 29.24864 | 60.55355 | 33182 ft | 499 kts | 61° |
| 2026-04-17 23:23 | 29.28352 | 60.62598 | 33185 ft | 500 kts | 61° |
| 2026-04-17 23:24 | 29.31829 | 60.69835 | 33187 ft | 499 kts | 62° |
| 2026-04-17 23:24 | 29.35283 | 60.77030 | 33188 ft | 500 kts | 61° |
| 2026-04-17 23:25 | 29.38756 | 60.84285 | 33178 ft | 500 kts | 61° |
| 2026-04-17 23:25 | 29.42226 | 60.91550 | 33178 ft | 500 kts | 61° |
| 2026-04-17 23:26 | 29.45715 | 60.98868 | 33175 ft | 501 kts | 61° |
| 2026-04-17 23:26 | 29.49195 | 61.06181 | 33167 ft | 501 kts | 61° |
| 2026-04-17 23:27 | 29.52661 | 61.13467 | 33148 ft | 503 kts | 61° |
| 2026-04-17 23:27 | 29.56135 | 61.20775 | 33131 ft | 502 kts | 61° |
| 2026-04-17 23:28 | 29.59587 | 61.28049 | 33104 ft | 501 kts | 61° |
| 2026-04-17 23:28 | 29.63056 | 61.35376 | 33066 ft | 502 kts | 61° |
| 2026-04-17 23:29 | 29.66520 | 61.42728 | 33053 ft | 501 kts | 61° |
| 2026-04-17 23:29 | 29.69944 | 61.50058 | 33033 ft | 503 kts | 62° |
| 2026-04-17 23:30 | 29.73269 | 61.57496 | 33028 ft | 504 kts | 62° |
| 2026-04-17 23:30 | 29.76568 | 61.65020 | 33017 ft | 504 kts | 63° |
| 2026-04-17 23:31 | 29.79857 | 61.72527 | 33016 ft | 505 kts | 63° |
| 2026-04-17 23:31 | 29.83150 | 61.80023 | 33017 ft | 504 kts | 63° |
| 2026-04-17 23:32 | 29.86417 | 61.87461 | 33016 ft | 505 kts | 63° |
| 2026-04-17 23:32 | 29.89716 | 61.94976 | 33015 ft | 504 kts | 63° |
| 2026-04-17 23:33 | 29.93003 | 62.02458 | 33014 ft | 504 kts | 63° |
| 2026-04-17 23:33 | 29.96288 | 62.09964 | 32998 ft | 505 kts | 63° |
| 2026-04-17 23:34 | 29.99551 | 62.17444 | 32996 ft | 505 kts | 63° |
| 2026-04-17 23:34 | 30.02827 | 62.24957 | 32995 ft | 506 kts | 63° |
| 2026-04-17 23:35 | 30.06120 | 62.32516 | 32994 ft | 507 kts | 63° |
| 2026-04-17 23:35 | 30.09433 | 62.40135 | 32998 ft | 506 kts | 63° |
| 2026-04-17 23:36 | 30.12697 | 62.47679 | 32998 ft | 507 kts | 63° |
| 2026-04-17 23:36 | 30.15980 | 62.55291 | 32997 ft | 507 kts | 63° |
| 2026-04-17 23:37 | 30.19248 | 62.62872 | 33001 ft | 507 kts | 63° |
| 2026-04-17 23:37 | 30.22503 | 62.70422 | 33007 ft | 505 kts | 64° |
| 2026-04-17 23:38 | 30.25743 | 62.77949 | 33002 ft | 506 kts | 64° |
| 2026-04-17 23:38 | 30.29002 | 62.85545 | 32990 ft | 507 kts | 64° |
| 2026-04-17 23:39 | 30.32265 | 62.93161 | 32993 ft | 507 kts | 64° |
| 2026-04-17 23:39 | 30.35524 | 63.00792 | 33000 ft | 507 kts | 64° |
| 2026-04-17 23:40 | 30.38776 | 63.08408 | 33002 ft | 508 kts | 64° |
| 2026-04-17 23:40 | 30.42281 | 63.15859 | 33002 ft | 507 kts | 56° |
| 2026-04-17 23:41 | 30.46519 | 63.22776 | 33004 ft | 507 kts | 52° |
| 2026-04-17 23:41 | 30.51053 | 63.29485 | 33004 ft | 507 kts | 50° |
| 2026-04-17 23:42 | 30.55585 | 63.36092 | 33004 ft | 507 kts | 50° |
| 2026-04-17 23:42 | 30.60113 | 63.42735 | 33002 ft | 507 kts | 50° |
| 2026-04-17 23:43 | 30.64614 | 63.49419 | 33001 ft | 507 kts | 50° |
| 2026-04-17 23:43 | 30.69120 | 63.56175 | 33004 ft | 507 kts | 51° |
| 2026-04-17 23:44 | 30.73626 | 63.62964 | 33006 ft | 507 kts | 50° |
| 2026-04-17 23:44 | 30.78101 | 63.69712 | 33006 ft | 507 kts | 51° |
| 2026-04-17 23:45 | 30.84796 | 63.79824 | 33005 ft | 507 kts | 51° |
| 2026-04-17 23:46 | 30.89268 | 63.86575 | 33006 ft | 508 kts | 51° |
| 2026-04-17 23:46 | 30.93711 | 63.93304 | 33003 ft | 508 kts | 51° |
| 2026-04-17 23:47 | 30.98183 | 64.00105 | 32996 ft | 508 kts | 51° |
| 2026-04-17 23:47 | 31.02629 | 64.06880 | 32982 ft | 507 kts | 51° |
| 2026-04-17 23:48 | 31.07084 | 64.13670 | 32986 ft | 508 kts | 51° |
| 2026-04-17 23:48 | 31.11558 | 64.20506 | 32986 ft | 509 kts | 51° |
| 2026-04-17 23:49 | 31.16040 | 64.27354 | 32997 ft | 510 kts | 51° |
| 2026-04-17 23:49 | 31.20530 | 64.34216 | 33005 ft | 511 kts | 51° |
| 2026-04-17 23:50 | 31.24959 | 64.41019 | 33014 ft | 512 kts | 51° |
| 2026-04-17 23:50 | 31.29434 | 64.47901 | 33018 ft | 512 kts | 51° |
| 2026-04-17 23:51 | 31.33904 | 64.54787 | 33021 ft | 513 kts | 51° |
| 2026-04-17 23:51 | 31.38401 | 64.61719 | 33021 ft | 512 kts | 51° |
| 2026-04-17 23:52 | 31.42900 | 64.68668 | 33014 ft | 512 kts | 52° |
| 2026-04-17 23:52 | 31.47346 | 64.75558 | 33014 ft | 512 kts | 52° |
| 2026-04-17 23:53 | 31.51800 | 64.82468 | 33013 ft | 513 kts | 52° |
| 2026-04-17 23:53 | 31.56260 | 64.89394 | 33015 ft | 514 kts | 52° |
| 2026-04-17 23:54 | 31.60710 | 64.96318 | 33020 ft | 513 kts | 52° |
| 2026-04-17 23:54 | 31.65161 | 65.03255 | 33031 ft | 514 kts | 52° |
| 2026-04-17 23:55 | 31.69636 | 65.10243 | 33054 ft | 513 kts | 52° |
| 2026-04-17 23:55 | 31.74066 | 65.17170 | 33076 ft | 512 kts | 51° |
| 2026-04-17 23:56 | 31.78530 | 65.24166 | 33093 ft | 513 kts | 51° |
| 2026-04-17 23:56 | 31.82960 | 65.31132 | 33103 ft | 513 kts | 52° |
| 2026-04-17 23:57 | 31.87407 | 65.38128 | 33109 ft | 514 kts | 51° |
| 2026-04-17 23:57 | 31.91883 | 65.45179 | 33115 ft | 513 kts | 51° |
| 2026-04-17 23:58 | 31.96361 | 65.52251 | 33127 ft | 512 kts | 52° |
| 2026-04-17 23:58 | 32.00818 | 65.59304 | 33136 ft | 513 kts | 51° |
| 2026-04-17 23:59 | 32.05241 | 65.66316 | 33147 ft | 512 kts | 52° |
| 2026-04-17 23:59 | 32.09698 | 65.73390 | 33172 ft | 515 kts | 52° |
| 2026-04-18 00:00 | 32.14101 | 65.80386 | 33175 ft | 514 kts | 52° |
| 2026-04-18 00:00 | 32.18534 | 65.87450 | 33177 ft | 514 kts | 52° |
| 2026-04-18 00:01 | 32.22900 | 65.94425 | 33190 ft | 514 kts | 52° |
| 2026-04-18 00:01 | 32.27302 | 66.01463 | 33181 ft | 515 kts | 52° |
| 2026-04-18 00:02 | 32.31700 | 66.08511 | 33187 ft | 515 kts | 52° |
| 2026-04-18 00:02 | 32.36126 | 66.15630 | 33219 ft | 517 kts | 52° |
| 2026-04-18 00:03 | 32.40517 | 66.22686 | 33240 ft | 516 kts | 52° |
| 2026-04-18 00:03 | 32.44951 | 66.29834 | 33253 ft | 519 kts | 52° |
| 2026-04-18 00:04 | 32.49377 | 66.36987 | 33294 ft | 519 kts | 52° |
| 2026-04-18 00:04 | 32.53799 | 66.44147 | 33306 ft | 520 kts | 52° |
| 2026-04-18 00:05 | 32.58235 | 66.51332 | 33311 ft | 519 kts | 52° |
| 2026-04-18 00:05 | 32.62702 | 66.58579 | 33336 ft | 520 kts | 52° |
| 2026-04-18 00:06 | 32.67122 | 66.65762 | 33338 ft | 521 kts | 53° |
| 2026-04-18 00:06 | 32.71559 | 66.72996 | 33353 ft | 519 kts | 53° |
| 2026-04-18 00:07 | 32.76014 | 66.80269 | 33367 ft | 521 kts | 54° |
| 2026-04-18 00:07 | 32.80424 | 66.87488 | 33394 ft | 521 kts | 53° |
| 2026-04-18 00:08 | 32.84872 | 66.94781 | 33387 ft | 520 kts | 53° |
| 2026-04-18 00:08 | 32.89271 | 67.02012 | 33383 ft | 519 kts | 53° |
| 2026-04-18 00:09 | 32.93682 | 67.09275 | 33390 ft | 522 kts | 53° |
| 2026-04-18 00:09 | 32.98080 | 67.16520 | 33395 ft | 520 kts | 53° |
| 2026-04-18 00:10 | 33.02460 | 67.23756 | 33394 ft | 521 kts | 53° |
| 2026-04-18 00:10 | 33.06840 | 67.31014 | 33385 ft | 519 kts | 53° |
| 2026-04-18 00:11 | 33.11211 | 67.38261 | 33374 ft | 520 kts | 53° |
| 2026-04-18 00:11 | 33.15598 | 67.45557 | 33372 ft | 520 kts | 53° |
| 2026-04-18 00:12 | 33.19948 | 67.52800 | 33364 ft | 519 kts | 53° |
| 2026-04-18 00:12 | 33.24311 | 67.60081 | 33356 ft | 519 kts | 53° |
| 2026-04-18 00:13 | 33.28657 | 67.67351 | 33371 ft | 520 kts | 53° |
| 2026-04-18 00:13 | 33.33028 | 67.74683 | 33370 ft | 518 kts | 53° |
| 2026-04-18 00:14 | 33.37387 | 67.82008 | 33362 ft | 521 kts | 53° |
| 2026-04-18 00:14 | 33.41751 | 67.89329 | 33365 ft | 522 kts | 53° |
| 2026-04-18 00:15 | 33.46124 | 67.96684 | 33362 ft | 521 kts | 54° |
| 2026-04-18 00:15 | 33.50447 | 68.03984 | 33364 ft | 522 kts | 54° |
| 2026-04-18 00:16 | 33.54826 | 68.11394 | 33367 ft | 522 kts | 53° |
| 2026-04-18 00:16 | 33.59184 | 68.18767 | 33364 ft | 520 kts | 53° |
| 2026-04-18 00:17 | 33.63518 | 68.26131 | 33362 ft | 522 kts | 53° |
| 2026-04-18 00:17 | 33.67850 | 68.33514 | 33350 ft | 521 kts | 53° |
| 2026-04-18 00:18 | 33.72215 | 68.40966 | 33354 ft | 521 kts | 54° |
| 2026-04-18 00:18 | 33.76575 | 68.48407 | 33355 ft | 521 kts | 54° |
| 2026-04-18 00:19 | 33.80933 | 68.55853 | 33350 ft | 521 kts | 53° |
| 2026-04-18 00:19 | 33.85421 | 68.63113 | 33335 ft | 521 kts | 47° |
| 2026-04-18 00:20 | 33.90950 | 68.69153 | 33331 ft | 514 kts | 32° |
| 2026-04-18 00:20 | 33.97187 | 68.74103 | 33296 ft | 513 kts | 27° |
| 2026-04-18 00:21 | 34.03544 | 68.78742 | 33291 ft | 510 kts | 27° |
| 2026-04-18 00:21 | 34.09910 | 68.83386 | 33283 ft | 511 kts | 27° |
| 2026-04-18 00:22 | 34.16226 | 68.88075 | 33292 ft | 512 kts | 27° |
| 2026-04-18 00:22 | 34.22472 | 68.92769 | 33294 ft | 515 kts | 28° |
| 2026-04-18 00:23 | 34.28715 | 68.97489 | 33286 ft | 513 kts | 28° |
| 2026-04-18 00:23 | 34.34936 | 69.02201 | 33260 ft | 515 kts | 28° |
| 2026-04-18 00:24 | 34.41185 | 69.06947 | 33247 ft | 515 kts | 27° |
| 2026-04-18 00:24 | 34.47475 | 69.11874 | 33244 ft | 517 kts | 34° |
| 2026-04-18 00:25 | 34.52615 | 69.18291 | 33243 ft | 523 kts | 53° |
| 2026-04-18 00:25 | 34.56451 | 69.25973 | 33266 ft | 523 kts | 62° |
| 2026-04-18 00:26 | 34.59946 | 69.34171 | 33277 ft | 523 kts | 63° |
| 2026-04-18 00:26 | 34.63378 | 69.42408 | 33289 ft | 523 kts | 63° |
| 2026-04-18 00:27 | 34.66800 | 69.50617 | 33321 ft | 525 kts | 63° |
| 2026-04-18 00:27 | 34.70257 | 69.58868 | 33320 ft | 524 kts | 63° |
| 2026-04-18 00:28 | 34.73680 | 69.67023 | 33334 ft | 525 kts | 63° |
| 2026-04-18 00:28 | 34.77128 | 69.75236 | 33343 ft | 524 kts | 63° |
| 2026-04-18 00:29 | 34.80553 | 69.83440 | 33348 ft | 525 kts | 63° |
| 2026-04-18 00:29 | 34.83931 | 69.91563 | 33358 ft | 524 kts | 63° |
| 2026-04-18 00:30 | 34.87338 | 69.99751 | 33369 ft | 523 kts | 63° |
| 2026-04-18 00:30 | 34.90725 | 70.07907 | 33347 ft | 524 kts | 63° |
| 2026-04-18 00:31 | 34.94127 | 70.16147 | 33344 ft | 525 kts | 63° |
| 2026-04-18 00:31 | 34.97489 | 70.24304 | 33354 ft | 524 kts | 63° |
| 2026-04-18 00:32 | 35.00861 | 70.32515 | 33346 ft | 524 kts | 63° |
| 2026-04-18 00:32 | 35.04249 | 70.40781 | 33333 ft | 526 kts | 63° |
| 2026-04-18 00:33 | 35.07636 | 70.49067 | 33342 ft | 525 kts | 63° |
| 2026-04-18 00:33 | 35.10995 | 70.57295 | 33341 ft | 525 kts | 63° |
| 2026-04-18 00:34 | 35.14389 | 70.65608 | 33352 ft | 524 kts | 64° |
| 2026-04-18 00:34 | 35.17761 | 70.73865 | 33375 ft | 524 kts | 63° |
| 2026-04-18 00:35 | 35.21125 | 70.82129 | 33370 ft | 525 kts | 63° |
| 2026-04-18 00:35 | 35.24492 | 70.90449 | 33381 ft | 525 kts | 63° |
| 2026-04-18 00:36 | 35.27786 | 70.98637 | 33384 ft | 527 kts | 64° |
| 2026-04-18 00:36 | 35.31133 | 71.06985 | 33386 ft | 529 kts | 64° |
| 2026-04-18 00:37 | 35.34501 | 71.15394 | 33392 ft | 526 kts | 63° |
| 2026-04-18 00:37 | 35.37868 | 71.23808 | 33377 ft | 526 kts | 63° |
| 2026-04-18 00:38 | 35.41177 | 71.32091 | 33401 ft | 527 kts | 63° |
| 2026-04-18 00:38 | 35.44486 | 71.40402 | 33401 ft | 525 kts | 63° |
| 2026-04-18 00:39 | 35.47790 | 71.48732 | 33401 ft | 525 kts | 63° |
| 2026-04-18 00:39 | 35.51130 | 71.57147 | 33413 ft | 524 kts | 64° |
| 2026-04-18 00:40 | 35.54465 | 71.65562 | 33385 ft | 525 kts | 64° |
| 2026-04-18 00:40 | 35.57688 | 71.73738 | 33372 ft | 525 kts | 64° |
| 2026-04-18 00:41 | 35.60875 | 71.81836 | 33364 ft | 524 kts | 64° |
| 2026-04-18 00:41 | 35.64027 | 71.89878 | 33364 ft | 524 kts | 64° |
| 2026-04-18 00:42 | 35.67224 | 71.98034 | 33347 ft | 524 kts | 64° |
| 2026-04-18 00:42 | 35.70422 | 72.06205 | 33346 ft | 523 kts | 64° |
| 2026-04-18 00:43 | 35.73657 | 72.14517 | 33366 ft | 524 kts | 64° |
| 2026-04-18 00:43 | 35.76904 | 72.22893 | 33444 ft | 527 kts | 64° |
| 2026-04-18 00:44 | 35.80140 | 72.31262 | 33469 ft | 525 kts | 64° |
| 2026-04-18 00:44 | 35.83365 | 72.39612 | 33484 ft | 527 kts | 64° |
| 2026-04-18 00:45 | 35.86601 | 72.47984 | 33496 ft | 527 kts | 64° |
| 2026-04-18 00:45 | 35.89909 | 72.56566 | 33496 ft | 527 kts | 64° |
| 2026-04-18 00:46 | 35.93158 | 72.65047 | 33489 ft | 527 kts | 64° |
| 2026-04-18 00:46 | 35.96400 | 72.73535 | 33474 ft | 526 kts | 65° |
| 2026-04-18 00:47 | 35.99610 | 72.81979 | 33475 ft | 527 kts | 65° |
| 2026-04-18 00:47 | 36.02811 | 72.90402 | 33471 ft | 527 kts | 64° |
| 2026-04-18 00:48 | 36.06026 | 72.98852 | 33477 ft | 526 kts | 65° |
| 2026-04-18 00:48 | 36.09215 | 73.07243 | 33475 ft | 526 kts | 64° |
| 2026-04-18 00:49 | 36.14039 | 73.20078 | 33471 ft | 526 kts | 65° |
| 2026-04-18 00:49 | 36.17216 | 73.28541 | 33459 ft | 527 kts | 64° |
| 2026-04-18 00:50 | 36.20409 | 73.37113 | 33471 ft | 528 kts | 65° |
| 2026-04-18 00:50 | 36.23588 | 73.45623 | 33460 ft | 527 kts | 65° |
| 2026-04-18 00:51 | 36.26753 | 73.54114 | 33477 ft | 527 kts | 65° |
| 2026-04-18 00:51 | 36.29913 | 73.62633 | 33531 ft | 527 kts | 64° |
| 2026-04-18 00:52 | 36.33061 | 73.71131 | 33546 ft | 527 kts | 65° |
| 2026-04-18 00:52 | 36.36258 | 73.79774 | 33544 ft | 528 kts | 65° |
| 2026-04-18 00:53 | 36.39377 | 73.88213 | 33509 ft | 527 kts | 64° |
| 2026-04-18 00:53 | 36.42493 | 73.96665 | 33473 ft | 525 kts | 65° |
| 2026-04-18 00:54 | 36.45582 | 74.05088 | 33476 ft | 527 kts | 65° |
| 2026-04-18 00:54 | 36.48686 | 74.13554 | 33511 ft | 525 kts | 65° |
| 2026-04-18 00:55 | 36.51826 | 74.22160 | 33534 ft | 528 kts | 65° |
| 2026-04-18 00:55 | 36.54911 | 74.30643 | 33499 ft | 529 kts | 65° |
| 2026-04-18 00:56 | 36.58010 | 74.39184 | 33523 ft | 525 kts | 65° |
| 2026-04-18 00:56 | 36.61090 | 74.47708 | 33540 ft | 527 kts | 65° |
| 2026-04-18 00:57 | 36.64217 | 74.56377 | 33545 ft | 528 kts | 65° |
| 2026-04-18 00:57 | 36.67299 | 74.64966 | 33541 ft | 527 kts | 65° |
| 2026-04-18 00:58 | 36.70392 | 74.73570 | 33544 ft | 528 kts | 65° |
| 2026-04-18 00:58 | 36.73518 | 74.82237 | 33542 ft | 528 kts | 66° |
| 2026-04-18 00:59 | 36.76595 | 74.90874 | 33544 ft | 526 kts | 65° |
| 2026-04-18 00:59 | 36.79648 | 74.99495 | 33556 ft | 529 kts | 65° |
| 2026-04-18 01:00 | 36.82701 | 75.08137 | 33558 ft | 527 kts | 66° |
| 2026-04-18 01:00 | 36.85760 | 75.16778 | 33545 ft | 528 kts | 66° |
| 2026-04-18 01:01 | 36.88806 | 75.25443 | 33523 ft | 528 kts | 66° |
| 2026-04-18 01:01 | 36.91878 | 75.34061 | 33513 ft | 526 kts | 63° |
| 2026-04-18 01:02 | 36.95728 | 75.42120 | 33491 ft | 524 kts | 49° |
| 2026-04-18 01:02 | 37.00658 | 75.49191 | 33451 ft | 522 kts | 42° |
| 2026-04-18 01:03 | 37.06017 | 75.55862 | 33418 ft | 518 kts | 39° |
| 2026-04-18 01:03 | 37.11435 | 75.62392 | 33411 ft | 519 kts | 39° |
| 2026-04-18 01:04 | 37.16789 | 75.68907 | 33395 ft | 517 kts | 41° |
| 2026-04-18 01:04 | 37.22082 | 75.75427 | 33386 ft | 519 kts | 41° |
| 2026-04-18 01:05 | 37.27397 | 75.82049 | 33380 ft | 518 kts | 41° |
| 2026-04-18 01:05 | 37.32725 | 75.88721 | 33363 ft | 520 kts | 41° |
| 2026-04-18 01:06 | 37.38020 | 75.95418 | 33341 ft | 519 kts | 42° |
| 2026-04-18 01:06 | 37.43327 | 76.02138 | 33347 ft | 519 kts | 41° |
| 2026-04-18 01:07 | 37.48679 | 76.08879 | 33329 ft | 518 kts | 41° |
| 2026-04-18 01:07 | 37.54031 | 76.15636 | 33333 ft | 519 kts | 40° |
| 2026-04-18 01:08 | 37.59341 | 76.22366 | 33340 ft | 518 kts | 41° |
| 2026-04-18 01:08 | 37.64646 | 76.29102 | 33334 ft | 518 kts | 41° |
| 2026-04-18 01:09 | 37.69928 | 76.35824 | 33312 ft | 520 kts | 41° |
| 2026-04-18 01:09 | 37.75248 | 76.42602 | 33297 ft | 519 kts | 41° |
| 2026-04-18 01:10 | 37.80555 | 76.49372 | 33269 ft | 520 kts | 41° |
| 2026-04-18 01:10 | 37.85871 | 76.56184 | 33234 ft | 519 kts | 41° |
| 2026-04-18 01:11 | 37.91195 | 76.63020 | 33204 ft | 519 kts | 40° |
| 2026-04-18 01:11 | 37.96489 | 76.69832 | 33183 ft | 520 kts | 41° |
| 2026-04-18 01:12 | 38.01812 | 76.76701 | 33136 ft | 520 kts | 41° |
| 2026-04-18 01:12 | 38.07098 | 76.83530 | 33106 ft | 521 kts | 42° |
| 2026-04-18 01:13 | 38.12391 | 76.90389 | 33063 ft | 518 kts | 41° |
| 2026-04-18 01:13 | 38.17668 | 76.97231 | 33031 ft | 521 kts | 42° |
| 2026-04-18 01:14 | 38.22966 | 77.04112 | 33013 ft | 520 kts | 41° |
| 2026-04-18 01:14 | 38.28225 | 77.10972 | 33006 ft | 518 kts | 42° |
| 2026-04-18 01:15 | 38.33477 | 77.17834 | 33002 ft | 516 kts | 41° |
| 2026-04-18 01:15 | 38.38694 | 77.24660 | 32999 ft | 515 kts | 41° |
| 2026-04-18 01:16 | 38.43957 | 77.31567 | 32991 ft | 515 kts | 41° |
| 2026-04-18 01:16 | 38.49148 | 77.38397 | 32993 ft | 515 kts | 41° |
| 2026-04-18 01:17 | 38.54304 | 77.45311 | 32987 ft | 517 kts | 46° |
| 2026-04-18 01:17 | 38.58304 | 77.53609 | 32986 ft | 524 kts | 66° |
| 2026-04-18 01:18 | 38.60692 | 77.62788 | 32981 ft | 526 kts | 73° |
| 2026-04-18 01:18 | 38.62718 | 77.72196 | 32976 ft | 525 kts | 75° |
| 2026-04-18 01:19 | 38.64710 | 77.81580 | 32969 ft | 527 kts | 74° |
| 2026-04-18 01:19 | 38.66705 | 77.90983 | 32964 ft | 528 kts | 74° |
| 2026-04-18 01:20 | 38.68705 | 78.00412 | 32966 ft | 527 kts | 74° |
| 2026-04-18 01:20 | 38.70712 | 78.09888 | 32965 ft | 525 kts | 73° |
| 2026-04-18 01:21 | 38.72691 | 78.19289 | 32967 ft | 527 kts | 74° |
| 2026-04-18 01:21 | 38.74657 | 78.28659 | 32968 ft | 527 kts | 74° |
| 2026-04-18 01:22 | 38.76638 | 78.38161 | 32968 ft | 528 kts | 73° |
| 2026-04-18 01:22 | 38.78601 | 78.47622 | 32966 ft | 526 kts | 73° |
| 2026-04-18 01:23 | 38.80544 | 78.57014 | 32964 ft | 528 kts | 75° |
| 2026-04-18 01:23 | 38.82473 | 78.66382 | 32958 ft | 526 kts | 75° |
| 2026-04-18 01:24 | 38.84408 | 78.75828 | 32956 ft | 528 kts | 75° |
| 2026-04-18 01:24 | 38.86338 | 78.85255 | 32958 ft | 528 kts | 75° |
| 2026-04-18 01:25 | 38.88247 | 78.94661 | 32957 ft | 526 kts | 75° |
| 2026-04-18 01:25 | 38.90164 | 79.04121 | 32951 ft | 528 kts | 75° |
| 2026-04-18 01:26 | 38.92072 | 79.13577 | 32953 ft | 527 kts | 75° |
| 2026-04-18 01:26 | 38.93977 | 79.23093 | 32959 ft | 527 kts | 75° |
| 2026-04-18 01:27 | 38.95874 | 79.32637 | 32949 ft | 527 kts | 75° |
| 2026-04-18 01:27 | 38.97758 | 79.42137 | 32953 ft | 526 kts | 75° |
| 2026-04-18 01:28 | 38.99638 | 79.51637 | 32955 ft | 527 kts | 74° |
| 2026-04-18 01:28 | 39.01490 | 79.61018 | 32959 ft | 528 kts | 75° |
| 2026-04-18 01:29 | 39.03350 | 79.70524 | 32956 ft | 526 kts | 75° |
| 2026-04-18 01:29 | 39.05190 | 79.79986 | 32964 ft | 527 kts | 76° |
| 2026-04-18 01:30 | 39.07029 | 79.89459 | 32957 ft | 525 kts | 75° |
| 2026-04-18 01:30 | 39.08855 | 79.98862 | 32963 ft | 524 kts | 75° |
| 2026-04-18 01:31 | 39.10682 | 80.08340 | 32974 ft | 525 kts | 75° |
| 2026-04-18 01:31 | 39.12493 | 80.17848 | 32980 ft | 525 kts | 76° |
| 2026-04-18 01:32 | 39.14279 | 80.27262 | 32950 ft | 522 kts | 75° |
| 2026-04-18 01:32 | 39.16069 | 80.36746 | 32966 ft | 523 kts | 76° |
| 2026-04-18 01:33 | 39.17831 | 80.46125 | 32963 ft | 521 kts | 75° |
| 2026-04-18 01:33 | 39.19616 | 80.55592 | 32953 ft | 521 kts | 75° |
| 2026-04-18 01:34 | 39.21382 | 80.64996 | 32953 ft | 520 kts | 75° |
| 2026-04-18 01:34 | 39.23134 | 80.74422 | 32954 ft | 520 kts | 76° |
| 2026-04-18 01:35 | 39.24884 | 80.83848 | 32954 ft | 518 kts | 76° |
| 2026-04-18 01:35 | 39.26630 | 80.93343 | 32955 ft | 518 kts | 77° |
| 2026-04-18 01:36 | 39.28365 | 81.02766 | 32950 ft | 518 kts | 76° |
| 2026-04-18 01:36 | 39.30091 | 81.12233 | 32951 ft | 519 kts | 76° |
| 2026-04-18 01:37 | 39.31795 | 81.21648 | 32942 ft | 519 kts | 76° |
| 2026-04-18 01:37 | 39.33492 | 81.31039 | 32945 ft | 517 kts | 76° |
| 2026-04-18 01:38 | 39.35186 | 81.40477 | 32946 ft | 521 kts | 76° |
| 2026-04-18 01:38 | 39.36873 | 81.49940 | 32945 ft | 519 kts | 76° |
| 2026-04-18 01:39 | 39.38549 | 81.59390 | 32943 ft | 519 kts | 76° |
| 2026-04-18 01:39 | 39.40228 | 81.68870 | 32942 ft | 518 kts | 76° |
| 2026-04-18 01:40 | 39.41908 | 81.78361 | 32935 ft | 518 kts | 76° |
| 2026-04-18 01:40 | 39.43545 | 81.87714 | 32930 ft | 516 kts | 77° |
| 2026-04-18 01:41 | 39.45197 | 81.97176 | 32937 ft | 518 kts | 76° |
| 2026-04-18 01:41 | 39.46838 | 82.06599 | 32914 ft | 516 kts | 76° |
| 2026-04-18 01:42 | 39.48474 | 82.16039 | 32929 ft | 517 kts | 76° |
| 2026-04-18 01:42 | 39.50099 | 82.25555 | 32934 ft | 518 kts | 76° |
| 2026-04-18 01:43 | 39.51716 | 82.35062 | 32932 ft | 517 kts | 76° |
| 2026-04-18 01:43 | 39.53318 | 82.44482 | 32932 ft | 517 kts | 76° |
| 2026-04-18 01:44 | 39.54924 | 82.53977 | 32933 ft | 519 kts | 76° |
| 2026-04-18 01:44 | 39.56519 | 82.63453 | 32932 ft | 518 kts | 76° |
| 2026-04-18 01:45 | 39.58096 | 82.72903 | 32936 ft | 515 kts | 76° |
| 2026-04-18 01:45 | 39.59667 | 82.82378 | 32932 ft | 517 kts | 76° |
| 2026-04-18 01:46 | 39.61255 | 82.91921 | 32931 ft | 516 kts | 76° |
| 2026-04-18 01:46 | 39.62814 | 83.01387 | 32921 ft | 516 kts | 76° |
| 2026-04-18 01:47 | 39.64368 | 83.10895 | 32915 ft | 517 kts | 76° |
| 2026-04-18 01:47 | 39.65911 | 83.20375 | 32922 ft | 517 kts | 76° |
| 2026-04-18 01:48 | 39.67462 | 83.29953 | 32914 ft | 519 kts | 77° |
| 2026-04-18 01:48 | 39.68985 | 83.39398 | 32916 ft | 517 kts | 77° |
| 2026-04-18 01:49 | 39.70512 | 83.48998 | 32913 ft | 518 kts | 76° |
| 2026-04-18 01:49 | 39.72006 | 83.58398 | 32920 ft | 518 kts | 76° |
| 2026-04-18 01:50 | 39.73528 | 83.67988 | 32916 ft | 519 kts | 77° |
| 2026-04-18 01:50 | 39.75015 | 83.77437 | 32921 ft | 518 kts | 77° |
| 2026-04-18 01:51 | 39.76515 | 83.86928 | 32927 ft | 517 kts | 77° |
| 2026-04-18 01:51 | 39.78012 | 83.96530 | 32935 ft | 518 kts | 77° |
| 2026-04-18 01:52 | 39.79488 | 84.06067 | 32935 ft | 516 kts | 78° |
| 2026-04-18 01:52 | 39.80952 | 84.15591 | 32927 ft | 518 kts | 78° |
| 2026-04-18 01:53 | 39.82414 | 84.25166 | 32909 ft | 519 kts | 78° |
| 2026-04-18 01:54 | 39.84583 | 84.39458 | 32921 ft | 518 kts | 78° |
| 2026-04-18 01:54 | 39.86015 | 84.48988 | 32911 ft | 517 kts | 78° |
| 2026-04-18 01:55 | 39.87454 | 84.58564 | 32916 ft | 519 kts | 77° |
| 2026-04-18 01:55 | 39.88880 | 84.68043 | 32914 ft | 516 kts | 78° |
| 2026-04-18 01:56 | 39.90293 | 84.77577 | 32913 ft | 515 kts | 79° |
| 2026-04-18 01:56 | 39.91706 | 84.87151 | 32916 ft | 518 kts | 78° |
| 2026-04-18 01:57 | 39.93110 | 84.96744 | 32920 ft | 517 kts | 78° |
| 2026-04-18 01:57 | 39.94494 | 85.06288 | 32916 ft | 516 kts | 79° |
| 2026-04-18 01:58 | 39.95882 | 85.15877 | 32912 ft | 518 kts | 78° |
| 2026-04-18 01:58 | 39.97256 | 85.25454 | 32920 ft | 519 kts | 78° |
| 2026-04-18 01:59 | 39.98638 | 85.35133 | 32923 ft | 515 kts | 78° |
| 2026-04-18 01:59 | 39.99994 | 85.44714 | 32926 ft | 515 kts | 78° |
| 2026-04-18 02:00 | 40.01340 | 85.54299 | 32921 ft | 517 kts | 78° |
| 2026-04-18 02:00 | 40.02697 | 85.63922 | 32914 ft | 518 kts | 78° |
| 2026-04-18 02:01 | 40.04044 | 85.73502 | 32910 ft | 516 kts | 78° |
| 2026-04-18 02:01 | 40.05381 | 85.83106 | 32910 ft | 518 kts | 79° |
| 2026-04-18 02:02 | 40.06703 | 85.92718 | 32910 ft | 518 kts | 78° |
| 2026-04-18 02:02 | 40.08460 | 86.02271 | 32913 ft | 516 kts | 71° |
| 2026-04-18 02:03 | 40.10877 | 86.11437 | 32917 ft | 516 kts | 66° |
| 2026-04-18 02:03 | 40.13607 | 86.20562 | 32918 ft | 516 kts | 65° |
| 2026-04-18 02:04 | 40.16378 | 86.29662 | 32921 ft | 515 kts | 65° |
| 2026-04-18 02:04 | 40.19087 | 86.38685 | 32926 ft | 520 kts | 65° |
| 2026-04-18 02:05 | 40.21771 | 86.47772 | 32922 ft | 516 kts | 65° |
| 2026-04-18 02:05 | 40.24442 | 86.56958 | 32926 ft | 521 kts | 66° |
| 2026-04-18 02:06 | 40.27116 | 86.66125 | 32926 ft | 516 kts | 66° |
| 2026-04-18 02:06 | 40.29792 | 86.75337 | 32934 ft | 519 kts | 67° |
| 2026-04-18 02:07 | 40.32447 | 86.84542 | 32938 ft | 523 kts | 66° |
| 2026-04-18 02:07 | 40.35104 | 86.93814 | 32937 ft | 519 kts | 67° |
| 2026-04-18 02:08 | 40.37741 | 87.03079 | 32942 ft | 521 kts | 67° |
| 2026-04-18 02:08 | 40.40391 | 87.12378 | 32936 ft | 521 kts | 67° |
| 2026-04-18 02:09 | 40.43018 | 87.21605 | 32944 ft | 524 kts | 68° |
| 2026-04-18 02:09 | 40.45683 | 87.30997 | 32949 ft | 523 kts | 68° |
| 2026-04-18 02:10 | 40.48303 | 87.40280 | 32948 ft | 523 kts | 66° |
| 2026-04-18 02:10 | 40.50915 | 87.49590 | 32947 ft | 525 kts | 66° |
| 2026-04-18 02:11 | 40.53547 | 87.59042 | 32949 ft | 530 kts | 67° |
| 2026-04-18 02:11 | 40.56183 | 87.68493 | 32956 ft | 525 kts | 67° |
| 2026-04-18 02:12 | 40.58837 | 87.77985 | 32960 ft | 530 kts | 67° |
| 2026-04-18 02:12 | 40.61475 | 87.87483 | 32965 ft | 528 kts | 67° |
| 2026-04-18 02:13 | 40.64077 | 87.96914 | 32963 ft | 531 kts | 68° |
| 2026-04-18 02:13 | 40.66716 | 88.06435 | 32968 ft | 529 kts | 67° |
| 2026-04-18 02:14 | 40.69319 | 88.15931 | 32970 ft | 533 kts | 68° |
| 2026-04-18 02:14 | 40.71938 | 88.25555 | 32977 ft | 529 kts | 67° |
| 2026-04-18 02:15 | 40.74530 | 88.35110 | 32977 ft | 531 kts | 68° |
| 2026-04-18 02:15 | 40.77101 | 88.44653 | 32990 ft | 535 kts | 68° |
| 2026-04-18 02:16 | 40.79696 | 88.54269 | 32996 ft | 533 kts | 68° |
| 2026-04-18 02:16 | 40.82253 | 88.63824 | 33003 ft | 535 kts | 68° |
| 2026-04-18 02:17 | 40.84816 | 88.73452 | 33003 ft | 536 kts | 68° |
| 2026-04-18 02:17 | 40.87386 | 88.83064 | 33004 ft | 531 kts | 68° |
| 2026-04-18 02:18 | 40.89945 | 88.92638 | 33017 ft | 535 kts | 68° |
| 2026-04-18 02:18 | 40.92491 | 89.02265 | 33027 ft | 535 kts | 68° |
| 2026-04-18 02:19 | 40.95026 | 89.11872 | 33021 ft | 534 kts | 69° |
| 2026-04-18 02:19 | 40.97551 | 89.21486 | 33028 ft | 536 kts | 68° |
| 2026-04-18 02:20 | 41.00105 | 89.31245 | 33035 ft | 536 kts | 67° |
| 2026-04-18 02:20 | 41.02645 | 89.40979 | 33036 ft | 538 kts | 69° |
| 2026-04-18 02:21 | 41.05154 | 89.50637 | 33038 ft | 537 kts | 67° |
| 2026-04-18 02:21 | 41.07670 | 89.60381 | 33050 ft | 539 kts | 67° |
| 2026-04-18 02:22 | 41.10170 | 89.70065 | 33052 ft | 537 kts | 68° |
| 2026-04-18 02:22 | 41.12647 | 89.79713 | 33056 ft | 540 kts | 68° |
| 2026-04-18 02:23 | 41.15161 | 89.89558 | 33054 ft | 541 kts | 68° |
| 2026-04-18 02:23 | 41.17674 | 89.99423 | 33057 ft | 542 kts | 69° |
| 2026-04-18 02:24 | 41.20145 | 90.09264 | 33055 ft | 541 kts | 68° |
| 2026-04-18 02:24 | 41.22610 | 90.19138 | 33054 ft | 541 kts | 68° |
| 2026-04-18 02:25 | 41.25102 | 90.29086 | 33060 ft | 542 kts | 68° |
| 2026-04-18 02:25 | 41.27590 | 90.38947 | 33056 ft | 541 kts | 68° |
| 2026-04-18 02:26 | 41.30067 | 90.48801 | 33058 ft | 542 kts | 69° |
| 2026-04-18 02:26 | 41.32516 | 90.58694 | 33052 ft | 541 kts | 69° |
| 2026-04-18 02:27 | 41.34922 | 90.68514 | 33051 ft | 542 kts | 70° |
| 2026-04-18 02:27 | 41.37349 | 90.78491 | 33048 ft | 542 kts | 68° |
| 2026-04-18 02:28 | 41.39789 | 90.88487 | 33049 ft | 544 kts | 70° |
| 2026-04-18 02:28 | 41.42200 | 90.98356 | 33040 ft | 542 kts | 69° |
| 2026-04-18 02:29 | 41.44638 | 91.08349 | 33039 ft | 541 kts | 70° |
| 2026-04-18 02:29 | 41.47041 | 91.18224 | 33038 ft | 545 kts | 70° |
| 2026-04-18 02:30 | 41.49447 | 91.28207 | 33039 ft | 544 kts | 70° |
| 2026-04-18 02:30 | 41.51838 | 91.38246 | 33037 ft | 548 kts | 70° |
| 2026-04-18 02:31 | 41.54223 | 91.48282 | 33046 ft | 547 kts | 69° |
| 2026-04-18 02:31 | 41.56589 | 91.58234 | 33036 ft | 547 kts | 70° |
| 2026-04-18 02:32 | 41.58955 | 91.68276 | 33038 ft | 546 kts | 69° |
| 2026-04-18 02:32 | 41.61339 | 91.78445 | 33044 ft | 549 kts | 70° |
| 2026-04-18 02:33 | 41.63238 | 91.88685 | 33048 ft | 554 kts | 79° |
| 2026-04-18 02:33 | 41.64343 | 91.99294 | 33046 ft | 553 kts | 83° |
| 2026-04-18 02:34 | 41.65134 | 92.09818 | 33046 ft | 553 kts | 83° |
| 2026-04-18 02:34 | 41.65909 | 92.20411 | 33047 ft | 554 kts | 84° |
| 2026-04-18 02:35 | 41.66712 | 92.31063 | 33052 ft | 555 kts | 82° |
| 2026-04-18 02:35 | 41.67556 | 92.41734 | 33043 ft | 555 kts | 83° |
| 2026-04-18 02:36 | 41.68393 | 92.52397 | 33043 ft | 553 kts | 84° |
| 2026-04-18 02:36 | 41.69227 | 92.63133 | 33045 ft | 555 kts | 83° |
| 2026-04-18 02:37 | 41.70047 | 92.73724 | 33043 ft | 554 kts | 83° |
| 2026-04-18 02:37 | 41.70863 | 92.84486 | 33038 ft | 556 kts | 84° |
| 2026-04-18 02:38 | 41.71676 | 92.95263 | 33048 ft | 556 kts | 84° |
| 2026-04-18 02:38 | 41.72488 | 93.06010 | 33046 ft | 558 kts | 83° |
| 2026-04-18 02:39 | 41.73270 | 93.16722 | 33046 ft | 556 kts | 84° |
| 2026-04-18 02:39 | 41.74039 | 93.27484 | 33048 ft | 558 kts | 84° |
| 2026-04-18 02:40 | 41.74800 | 93.38145 | 33042 ft | 559 kts | 83° |
| 2026-04-18 02:40 | 41.75539 | 93.48857 | 33041 ft | 559 kts | 83° |
| 2026-04-18 02:41 | 41.76283 | 93.59676 | 33034 ft | 557 kts | 84° |
| 2026-04-18 02:41 | 41.77017 | 93.70369 | 33033 ft | 560 kts | 84° |
| 2026-04-18 02:42 | 41.77759 | 93.81217 | 33025 ft | 562 kts | 83° |
| 2026-04-18 02:42 | 41.78482 | 93.92045 | 33021 ft | 558 kts | 84° |
| 2026-04-18 02:43 | 41.79207 | 94.02787 | 33021 ft | 560 kts | 83° |
| 2026-04-18 02:43 | 41.79898 | 94.13573 | 33020 ft | 557 kts | 84° |
| 2026-04-18 02:44 | 41.80591 | 94.24449 | 33026 ft | 561 kts | 84° |
| 2026-04-18 02:44 | 41.81249 | 94.35144 | 33029 ft | 561 kts | 83° |
| 2026-04-18 02:45 | 41.81902 | 94.45946 | 33031 ft | 561 kts | 84° |
| 2026-04-18 02:45 | 41.82529 | 94.56808 | 33031 ft | 560 kts | 84° |
| 2026-04-18 02:46 | 41.83165 | 94.67631 | 33020 ft | 560 kts | 85° |
| 2026-04-18 02:46 | 41.83841 | 94.78491 | 33022 ft | 562 kts | 83° |
| 2026-04-18 02:47 | 41.84455 | 94.89372 | 33020 ft | 563 kts | 84° |
| 2026-04-18 02:47 | 41.85068 | 95.00217 | 33018 ft | 562 kts | 85° |
| 2026-04-18 02:48 | 41.85664 | 95.11076 | 33023 ft | 563 kts | 84° |
| 2026-04-18 02:48 | 41.86023 | 95.21978 | 33037 ft | 562 kts | 91° |
| 2026-04-18 02:49 | 41.85442 | 95.32776 | 33041 ft | 563 kts | 96° |
| 2026-04-18 02:49 | 41.84463 | 95.43573 | 33039 ft | 561 kts | 97° |
| 2026-04-18 02:50 | 41.83474 | 95.54348 | 33033 ft | 562 kts | 97° |
| 2026-04-18 02:50 | 41.82524 | 95.65157 | 33047 ft | 564 kts | 97° |
| 2026-04-18 02:51 | 41.81614 | 95.76077 | 33048 ft | 562 kts | 96° |
| 2026-04-18 02:51 | 41.80700 | 95.86888 | 33047 ft | 561 kts | 97° |
| 2026-04-18 02:52 | 41.79776 | 95.97644 | 33054 ft | 561 kts | 98° |
| 2026-04-18 02:52 | 41.78850 | 96.08389 | 33032 ft | 562 kts | 97° |
| 2026-04-18 02:53 | 41.77924 | 96.19237 | 33028 ft | 562 kts | 97° |
| 2026-04-18 02:53 | 41.76960 | 96.29990 | 33018 ft | 562 kts | 97° |
| 2026-04-18 02:54 | 41.76027 | 96.40762 | 33013 ft | 562 kts | 97° |
| 2026-04-18 02:54 | 41.75066 | 96.51634 | 33006 ft | 562 kts | 97° |
| 2026-04-18 02:55 | 41.74105 | 96.62441 | 32991 ft | 562 kts | 97° |
| 2026-04-18 02:55 | 41.73101 | 96.73231 | 32991 ft | 559 kts | 97° |
| 2026-04-18 02:56 | 41.72089 | 96.84062 | 32986 ft | 561 kts | 97° |
| 2026-04-18 02:56 | 41.70569 | 97.00156 | 32984 ft | 559 kts | 98° |
| 2026-04-18 02:57 | 41.69532 | 97.10967 | 32981 ft | 560 kts | 98° |
| 2026-04-18 02:57 | 41.68495 | 97.21687 | 32981 ft | 560 kts | 97° |
| 2026-04-18 02:58 | 41.67455 | 97.32421 | 32978 ft | 557 kts | 98° |
| 2026-04-18 02:58 | 41.66411 | 97.43082 | 32987 ft | 559 kts | 98° |
| 2026-04-18 02:59 | 41.65341 | 97.53881 | 32991 ft | 560 kts | 98° |
| 2026-04-18 02:59 | 41.64254 | 97.64664 | 32995 ft | 560 kts | 98° |
| 2026-04-18 03:00 | 41.63176 | 97.75407 | 32999 ft | 559 kts | 98° |
| 2026-04-18 03:00 | 41.62085 | 97.86124 | 33002 ft | 560 kts | 98° |
| 2026-04-18 03:01 | 41.60992 | 97.96761 | 33001 ft | 558 kts | 98° |
| 2026-04-18 03:01 | 41.59891 | 98.07422 | 33002 ft | 559 kts | 98° |
| 2026-04-18 03:02 | 41.58782 | 98.18050 | 32996 ft | 557 kts | 98° |
| 2026-04-18 03:02 | 41.57646 | 98.28680 | 32994 ft | 556 kts | 98° |
| 2026-04-18 03:03 | 41.56513 | 98.39318 | 32995 ft | 556 kts | 98° |
| 2026-04-18 03:03 | 41.55373 | 98.49945 | 32992 ft | 556 kts | 98° |
| 2026-04-18 03:04 | 41.54211 | 98.60659 | 33000 ft | 558 kts | 98° |
| 2026-04-18 03:04 | 41.53061 | 98.71236 | 32995 ft | 554 kts | 99° |
| 2026-04-18 03:05 | 41.51908 | 98.81824 | 32990 ft | 554 kts | 98° |
| 2026-04-18 03:05 | 41.50740 | 98.92351 | 32984 ft | 557 kts | 98° |
| 2026-04-18 03:06 | 41.49534 | 99.03006 | 32974 ft | 555 kts | 98° |
| 2026-04-18 03:06 | 41.48326 | 99.13507 | 32980 ft | 553 kts | 98° |
| 2026-04-18 03:07 | 41.47114 | 99.24082 | 32976 ft | 556 kts | 98° |
| 2026-04-18 03:07 | 41.45895 | 99.34674 | 32966 ft | 554 kts | 98° |
| 2026-04-18 03:08 | 41.44682 | 99.45119 | 32967 ft | 556 kts | 97° |
| 2026-04-18 03:08 | 41.43443 | 99.55705 | 32960 ft | 555 kts | 97° |
| 2026-04-18 03:09 | 41.42189 | 99.66304 | 32950 ft | 557 kts | 98° |
| 2026-04-18 03:09 | 41.40929 | 99.76861 | 32935 ft | 557 kts | 97° |
| 2026-04-18 03:10 | 41.39650 | 99.87506 | 32929 ft | 554 kts | 98° |
| 2026-04-18 03:10 | 41.38371 | 99.98036 | 32912 ft | 556 kts | 98° |
| 2026-04-18 03:11 | 41.37087 | 100.08543 | 32910 ft | 556 kts | 98° |
| 2026-04-18 03:11 | 41.35786 | 100.19140 | 32908 ft | 555 kts | 98° |
| 2026-04-18 03:12 | 41.34484 | 100.29660 | 32904 ft | 553 kts | 97° |
| 2026-04-18 03:12 | 41.33182 | 100.40119 | 32904 ft | 552 kts | 97° |
| 2026-04-18 03:13 | 41.31855 | 100.50666 | 32904 ft | 553 kts | 97° |
| 2026-04-18 03:13 | 41.30520 | 100.61164 | 32895 ft | 552 kts | 97° |
| 2026-04-18 03:14 | 41.29184 | 100.71600 | 32894 ft | 554 kts | 98° |
| 2026-04-18 03:14 | 41.27824 | 100.82079 | 32896 ft | 553 kts | 98° |
| 2026-04-18 03:15 | 41.26463 | 100.92495 | 32898 ft | 551 kts | 98° |
| 2026-04-18 03:15 | 41.25097 | 101.02937 | 32893 ft | 550 kts | 98° |
| 2026-04-18 03:16 | 41.23725 | 101.13365 | 32894 ft | 553 kts | 98° |
| 2026-04-18 03:16 | 41.22346 | 101.23743 | 32883 ft | 550 kts | 98° |
| 2026-04-18 03:17 | 41.20960 | 101.34131 | 32872 ft | 550 kts | 97° |
| 2026-04-18 03:17 | 41.19556 | 101.44521 | 32870 ft | 547 kts | 97° |
| 2026-04-18 03:18 | 41.18154 | 101.54868 | 32862 ft | 548 kts | 97° |
| 2026-04-18 03:18 | 41.16761 | 101.65119 | 32868 ft | 546 kts | 98° |
| 2026-04-18 03:19 | 41.15340 | 101.75465 | 32877 ft | 547 kts | 98° |
| 2026-04-18 03:19 | 41.13917 | 101.85747 | 32886 ft | 547 kts | 98° |
| 2026-04-18 03:20 | 41.12488 | 101.95982 | 32883 ft | 544 kts | 98° |
| 2026-04-18 03:20 | 41.11050 | 102.06206 | 32892 ft | 545 kts | 98° |
| 2026-04-18 03:21 | 41.09605 | 102.16482 | 32895 ft | 543 kts | 98° |
| 2026-04-18 03:21 | 41.08161 | 102.26647 | 32892 ft | 542 kts | 98° |
| 2026-04-18 03:22 | 41.06699 | 102.36853 | 32894 ft | 541 kts | 98° |
| 2026-04-18 03:22 | 41.05235 | 102.47030 | 32889 ft | 540 kts | 98° |
| 2026-04-18 03:23 | 41.03767 | 102.57165 | 32896 ft | 541 kts | 98° |
| 2026-04-18 03:23 | 41.02283 | 102.67335 | 32892 ft | 539 kts | 98° |
| 2026-04-18 03:24 | 41.00795 | 102.77470 | 32902 ft | 539 kts | 99° |
| 2026-04-18 03:24 | 40.99298 | 102.87633 | 32901 ft | 538 kts | 98° |
| 2026-04-18 03:25 | 40.97805 | 102.97725 | 32919 ft | 539 kts | 98° |
| 2026-04-18 03:25 | 40.96319 | 103.07776 | 32933 ft | 538 kts | 98° |
| 2026-04-18 03:26 | 40.94806 | 103.17879 | 32920 ft | 535 kts | 99° |
| 2026-04-18 03:26 | 40.93276 | 103.27913 | 32914 ft | 535 kts | 98° |
| 2026-04-18 03:27 | 40.91749 | 103.37862 | 32904 ft | 533 kts | 99° |
| 2026-04-18 03:27 | 40.90211 | 103.47833 | 32902 ft | 531 kts | 98° |
| 2026-04-18 03:28 | 40.88685 | 103.57725 | 32889 ft | 529 kts | 98° |
| 2026-04-18 03:28 | 40.87146 | 103.67648 | 32886 ft | 530 kts | 99° |
| 2026-04-18 03:29 | 40.85605 | 103.77510 | 32884 ft | 529 kts | 100° |
| 2026-04-18 03:29 | 40.84055 | 103.87372 | 32876 ft | 526 kts | 100° |
| 2026-04-18 03:30 | 40.82494 | 103.97248 | 32883 ft | 528 kts | 100° |
| 2026-04-18 03:30 | 40.80931 | 104.07081 | 32887 ft | 526 kts | 100° |
| 2026-04-18 03:31 | 40.79368 | 104.16858 | 32894 ft | 525 kts | 100° |
| 2026-04-18 03:31 | 40.77793 | 104.26659 | 32888 ft | 527 kts | 100° |
| 2026-04-18 03:32 | 40.76203 | 104.36494 | 32887 ft | 526 kts | 99° |
| 2026-04-18 03:32 | 40.74600 | 104.46358 | 32888 ft | 525 kts | 100° |
| 2026-04-18 03:33 | 40.72998 | 104.56117 | 32882 ft | 525 kts | 100° |
| 2026-04-18 03:33 | 40.71376 | 104.65991 | 32875 ft | 524 kts | 101° |
| 2026-04-18 03:34 | 40.69761 | 104.75711 | 32874 ft | 525 kts | 101° |
| 2026-04-18 03:34 | 40.68116 | 104.85577 | 32873 ft | 524 kts | 101° |
| 2026-04-18 03:35 | 40.66483 | 104.95329 | 32876 ft | 523 kts | 101° |
| 2026-04-18 03:35 | 40.64839 | 105.05088 | 32877 ft | 524 kts | 101° |
| 2026-04-18 03:36 | 40.63178 | 105.14887 | 32880 ft | 522 kts | 101° |
| 2026-04-18 03:36 | 40.61525 | 105.24623 | 32878 ft | 522 kts | 101° |
| 2026-04-18 03:37 | 40.59851 | 105.34398 | 32885 ft | 522 kts | 101° |
| 2026-04-18 03:37 | 40.58174 | 105.44154 | 32891 ft | 522 kts | 101° |
| 2026-04-18 03:38 | 40.56499 | 105.53840 | 32898 ft | 522 kts | 101° |
| 2026-04-18 03:38 | 40.54805 | 105.63587 | 32897 ft | 521 kts | 101° |
| 2026-04-18 03:39 | 40.53117 | 105.73282 | 32899 ft | 521 kts | 101° |
| 2026-04-18 03:39 | 40.51409 | 105.83016 | 32896 ft | 521 kts | 101° |
| 2026-04-18 03:40 | 40.49701 | 105.92666 | 32894 ft | 522 kts | 101° |
| 2026-04-18 03:40 | 40.47971 | 106.02408 | 32884 ft | 520 kts | 101° |
| 2026-04-18 03:41 | 40.46261 | 106.12003 | 32870 ft | 520 kts | 101° |
| 2026-04-18 03:41 | 40.44527 | 106.21669 | 32855 ft | 518 kts | 101° |
| 2026-04-18 03:42 | 40.42788 | 106.31316 | 32843 ft | 519 kts | 101° |
| 2026-04-18 03:42 | 40.41035 | 106.40950 | 32840 ft | 518 kts | 102° |
| 2026-04-18 03:43 | 40.39283 | 106.50560 | 32839 ft | 517 kts | 101° |
| 2026-04-18 03:43 | 40.37537 | 106.60107 | 32842 ft | 515 kts | 101° |
| 2026-04-18 03:44 | 40.35782 | 106.69652 | 32844 ft | 517 kts | 102° |
| 2026-04-18 03:44 | 40.34015 | 106.79217 | 32844 ft | 515 kts | 102° |
| 2026-04-18 03:45 | 40.32259 | 106.88748 | 32847 ft | 514 kts | 100° |
| 2026-04-18 03:45 | 40.31169 | 106.98429 | 32848 ft | 511 kts | 90° |
| 2026-04-18 03:46 | 40.30941 | 107.08093 | 32851 ft | 507 kts | 86° |
| 2026-04-18 03:46 | 40.31086 | 107.17659 | 32866 ft | 506 kts | 84° |
| 2026-04-18 03:47 | 40.31428 | 107.27262 | 32878 ft | 504 kts | 83° |
| 2026-04-18 03:47 | 40.31737 | 107.36719 | 32866 ft | 504 kts | 84° |
| 2026-04-18 03:48 | 40.31988 | 107.46323 | 32858 ft | 504 kts | 84° |
| 2026-04-18 03:48 | 40.32200 | 107.55878 | 32863 ft | 504 kts | 84° |
| 2026-04-18 03:49 | 40.32390 | 107.65418 | 32862 ft | 504 kts | 85° |
| 2026-04-18 03:49 | 40.32569 | 107.74925 | 32868 ft | 503 kts | 85° |
| 2026-04-18 03:50 | 40.32744 | 107.84503 | 32868 ft | 503 kts | 85° |
| 2026-04-18 03:50 | 40.32903 | 107.94067 | 32874 ft | 501 kts | 85° |
| 2026-04-18 03:51 | 40.33055 | 108.03590 | 32876 ft | 502 kts | 85° |
| 2026-04-18 03:51 | 40.33198 | 108.13100 | 32876 ft | 501 kts | 86° |
| 2026-04-18 03:52 | 40.33333 | 108.22658 | 32876 ft | 499 kts | 86° |
| 2026-04-18 03:52 | 40.33464 | 108.32156 | 32873 ft | 501 kts | 86° |
| 2026-04-18 03:53 | 40.33586 | 108.41673 | 32875 ft | 501 kts | 86° |
| 2026-04-18 03:53 | 40.33702 | 108.51201 | 32879 ft | 500 kts | 86° |
| 2026-04-18 03:54 | 40.33808 | 108.60735 | 32879 ft | 502 kts | 86° |
| 2026-04-18 03:54 | 40.33911 | 108.70224 | 32890 ft | 501 kts | 86° |
| 2026-04-18 03:55 | 40.34003 | 108.79720 | 32894 ft | 501 kts | 87° |
| 2026-04-18 03:55 | 40.34092 | 108.89265 | 32902 ft | 500 kts | 87° |
| 2026-04-18 03:56 | 40.34170 | 108.98744 | 32907 ft | 500 kts | 86° |
| 2026-04-18 03:56 | 40.34238 | 109.08282 | 32911 ft | 498 kts | 87° |
| 2026-04-18 03:57 | 40.34326 | 109.22462 | 32901 ft | 497 kts | 87° |
| 2026-04-18 03:58 | 40.34377 | 109.31997 | 32902 ft | 498 kts | 87° |
| 2026-04-18 03:58 | 40.34417 | 109.41441 | 32900 ft | 497 kts | 87° |
| 2026-04-18 03:59 | 40.34452 | 109.50887 | 32902 ft | 498 kts | 87° |
| 2026-04-18 03:59 | 40.34478 | 109.60294 | 32903 ft | 496 kts | 87° |
| 2026-04-18 04:00 | 40.34497 | 109.69655 | 32912 ft | 496 kts | 88° |
| 2026-04-18 04:00 | 40.34510 | 109.79058 | 32915 ft | 493 kts | 88° |
| 2026-04-18 04:01 | 40.34514 | 109.88429 | 32913 ft | 493 kts | 88° |
| 2026-04-18 04:01 | 40.34511 | 109.97794 | 32917 ft | 494 kts | 88° |
| 2026-04-18 04:02 | 40.34501 | 110.07183 | 32919 ft | 492 kts | 88° |
| 2026-04-18 04:02 | 40.34481 | 110.16492 | 32923 ft | 494 kts | 88° |
| 2026-04-18 04:03 | 40.34455 | 110.25775 | 32923 ft | 492 kts | 88° |
| 2026-04-18 04:03 | 40.34419 | 110.35110 | 32923 ft | 491 kts | 88° |
| 2026-04-18 04:04 | 40.34377 | 110.44461 | 32925 ft | 492 kts | 88° |
| 2026-04-18 04:04 | 40.34330 | 110.53730 | 32931 ft | 490 kts | 88° |
| 2026-04-18 04:05 | 40.34278 | 110.62974 | 32935 ft | 490 kts | 88° |
| 2026-04-18 04:05 | 40.34217 | 110.72331 | 32939 ft | 490 kts | 88° |
| 2026-04-18 04:06 | 40.34148 | 110.81602 | 32937 ft | 489 kts | 89° |
| 2026-04-18 04:06 | 40.34066 | 110.90943 | 32944 ft | 489 kts | 88° |
| 2026-04-18 04:07 | 40.33980 | 111.00211 | 32941 ft | 488 kts | 88° |
| 2026-04-18 04:07 | 40.33889 | 111.09380 | 32952 ft | 488 kts | 89° |
| 2026-04-18 04:08 | 40.33789 | 111.18546 | 32953 ft | 487 kts | 88° |
| 2026-04-18 04:08 | 40.33682 | 111.27741 | 32960 ft | 488 kts | 89° |
| 2026-04-18 04:09 | 40.33567 | 111.36968 | 32963 ft | 487 kts | 89° |
| 2026-04-18 04:09 | 40.33448 | 111.46109 | 32967 ft | 486 kts | 89° |
| 2026-04-18 04:10 | 40.33321 | 111.55283 | 32978 ft | 485 kts | 89° |
| 2026-04-18 04:10 | 40.33186 | 111.64427 | 32985 ft | 485 kts | 89° |
| 2026-04-18 04:11 | 40.33042 | 111.73596 | 32987 ft | 485 kts | 90° |
| 2026-04-18 04:11 | 40.32890 | 111.82806 | 32993 ft | 485 kts | 89° |
| 2026-04-18 04:12 | 40.32732 | 111.91956 | 32997 ft | 485 kts | 90° |
| 2026-04-18 04:12 | 40.32568 | 112.01126 | 33006 ft | 486 kts | 90° |
| 2026-04-18 04:13 | 40.32398 | 112.10215 | 33007 ft | 484 kts | 90° |
| 2026-04-18 04:13 | 40.32223 | 112.19339 | 33007 ft | 485 kts | 89° |
| 2026-04-18 04:14 | 40.32041 | 112.28449 | 33009 ft | 484 kts | 90° |
| 2026-04-18 04:14 | 40.31848 | 112.37591 | 33013 ft | 483 kts | 90° |
| 2026-04-18 04:15 | 40.31648 | 112.46677 | 33010 ft | 483 kts | 89° |
| 2026-04-18 04:15 | 40.31442 | 112.55835 | 33011 ft | 485 kts | 89° |
| 2026-04-18 04:16 | 40.31230 | 112.64883 | 33023 ft | 483 kts | 89° |
| 2026-04-18 04:16 | 40.31006 | 112.74061 | 33026 ft | 482 kts | 90° |
| 2026-04-18 04:17 | 40.30777 | 112.83156 | 33027 ft | 482 kts | 90° |
| 2026-04-18 04:17 | 40.30545 | 112.92246 | 33015 ft | 483 kts | 90° |
| 2026-04-18 04:18 | 40.30304 | 113.01293 | 33010 ft | 482 kts | 90° |
| 2026-04-18 04:18 | 40.30055 | 113.10323 | 33004 ft | 482 kts | 90° |
| 2026-04-18 04:19 | 40.29799 | 113.19416 | 32999 ft | 482 kts | 90° |
| 2026-04-18 04:19 | 40.29538 | 113.28453 | 32993 ft | 482 kts | 90° |
| 2026-04-18 04:20 | 40.29271 | 113.37521 | 33002 ft | 481 kts | 90° |
| 2026-04-18 04:20 | 40.28996 | 113.46590 | 33014 ft | 481 kts | 90° |
| 2026-04-18 04:21 | 40.28714 | 113.55618 | 33018 ft | 481 kts | 90° |
| 2026-04-18 04:21 | 40.28423 | 113.64678 | 33010 ft | 479 kts | 90° |
| 2026-04-18 04:22 | 40.28127 | 113.73741 | 32993 ft | 480 kts | 91° |
| 2026-04-18 04:22 | 40.27826 | 113.82659 | 32983 ft | 480 kts | 91° |
| 2026-04-18 04:23 | 40.27517 | 113.91618 | 32981 ft | 480 kts | 92° |
| 2026-04-18 04:23 | 40.27202 | 114.00606 | 32984 ft | 481 kts | 92° |
| 2026-04-18 04:24 | 40.26880 | 114.09561 | 33000 ft | 481 kts | 92° |
| 2026-04-18 04:24 | 40.26551 | 114.18528 | 33012 ft | 480 kts | 91° |
| 2026-04-18 04:25 | 40.26215 | 114.27498 | 33026 ft | 479 kts | 92° |
| 2026-04-18 04:25 | 40.25870 | 114.36488 | 33022 ft | 479 kts | 91° |
| 2026-04-18 04:26 | 40.25522 | 114.45377 | 33020 ft | 479 kts | 92° |
| 2026-04-18 04:26 | 40.25164 | 114.54418 | 32996 ft | 479 kts | 92° |
| 2026-04-18 04:27 | 40.24802 | 114.63337 | 32991 ft | 479 kts | 92° |
| 2026-04-18 04:27 | 40.24437 | 114.72189 | 32991 ft | 480 kts | 92° |
| 2026-04-18 04:28 | 40.24070 | 114.80919 | 32995 ft | 480 kts | 92° |
| 2026-04-18 04:28 | 40.23695 | 114.89622 | 33010 ft | 479 kts | 92° |
| 2026-04-18 04:29 | 40.23317 | 114.98309 | 33016 ft | 478 kts | 92° |
| 2026-04-18 04:29 | 40.22931 | 115.07012 | 33016 ft | 479 kts | 92° |
| 2026-04-18 04:30 | 40.22537 | 115.15765 | 33010 ft | 479 kts | 92° |
| 2026-04-18 04:30 | 40.22138 | 115.24474 | 33000 ft | 479 kts | 92° |
| 2026-04-18 04:31 | 40.21722 | 115.33249 | 32985 ft | 479 kts | 94° |
| 2026-04-18 04:31 | 40.20328 | 115.41718 | 32978 ft | 479 kts | 114° |
| 2026-04-18 04:31 | 40.18632 | 115.45457 | 32980 ft | 479 kts | 128° |
| 2026-04-18 04:32 | 40.16359 | 115.48656 | 32987 ft | 477 kts | 139° |
| 2026-04-18 04:32 | 40.10962 | 115.53500 | 32990 ft | 471 kts | 160° |
| 2026-04-18 04:33 | 40.04740 | 115.56036 | 32996 ft | 468 kts | 168° |
| 2026-04-18 04:33 | 39.98366 | 115.58009 | 32996 ft | 467 kts | 169° |
| 2026-04-18 04:34 | 39.91895 | 115.59971 | 32982 ft | 468 kts | 169° |
| 2026-04-18 04:34 | 39.85497 | 115.61969 | 32972 ft | 468 kts | 168° |
| 2026-04-18 04:35 | 39.79146 | 115.64002 | 32956 ft | 468 kts | 168° |
| 2026-04-18 04:35 | 39.72786 | 115.66058 | 32947 ft | 469 kts | 169° |
| 2026-04-18 04:36 | 39.66289 | 115.68165 | 32936 ft | 469 kts | 168° |
| 2026-04-18 04:36 | 39.59988 | 115.70219 | 32922 ft | 469 kts | 167° |
| 2026-04-18 04:37 | 39.54007 | 115.73627 | 32907 ft | 474 kts | 144° |
| 2026-04-18 04:37 | 39.51604 | 115.76552 | 32901 ft | 477 kts | 130° |
| 2026-04-18 04:37 | 39.49736 | 115.80095 | 32896 ft | 478 kts | 119° |
| 2026-04-18 04:38 | 39.47460 | 115.88081 | 32890 ft | 475 kts | 95° |
| 2026-04-18 04:38 | 39.47413 | 115.92311 | 32895 ft | 473 kts | 83° |
| 2026-04-18 04:38 | 39.47803 | 115.96477 | 32886 ft | 472 kts | 76° |
| 2026-04-18 04:38 | 39.48908 | 116.00424 | 32888 ft | 465 kts | 58° |
| 2026-04-18 04:39 | 39.50719 | 116.03902 | 32896 ft | 463 kts | 49° |
| 2026-04-18 04:39 | 39.54958 | 116.10181 | 32896 ft | 461 kts | 44° |
| 2026-04-18 04:40 | 39.59348 | 116.16235 | 32900 ft | 461 kts | 43° |
| 2026-04-18 04:40 | 39.63736 | 116.22234 | 32901 ft | 460 kts | 43° |
| 2026-04-18 04:41 | 39.67417 | 116.28972 | 32901 ft | 470 kts | 70° |
| 2026-04-18 04:41 | 39.67894 | 116.33180 | 32901 ft | 476 kts | 91° |
| 2026-04-18 04:41 | 39.67245 | 116.37352 | 32904 ft | 478 kts | 111° |
| 2026-04-18 04:41 | 39.65528 | 116.41042 | 32904 ft | 478 kts | 133° |
| 2026-04-18 04:42 | 39.63003 | 116.43718 | 32906 ft | 474 kts | 153° |
| 2026-04-18 04:42 | 39.59938 | 116.45132 | 32905 ft | 467 kts | 174° |
| 2026-04-18 04:42 | 39.56722 | 116.45184 | 32912 ft | 461 kts | 190° |
| 2026-04-18 04:43 | 39.50418 | 116.43751 | 32906 ft | 459 kts | 193° |
| 2026-04-18 04:43 | 39.44128 | 116.42322 | 32903 ft | 459 kts | 196° |
| 2026-04-18 04:43 | 39.41135 | 116.40964 | 32904 ft | 454 kts | 208° |
| 2026-04-18 04:44 | 39.38369 | 116.39092 | 32901 ft | 453 kts | 212° |
| 2026-04-18 04:44 | 39.32900 | 116.35078 | 32890 ft | 452 kts | 214° |
| 2026-04-18 04:44 | 39.30361 | 116.32701 | 32879 ft | 447 kts | 227° |
| 2026-04-18 04:45 | 39.28482 | 116.29562 | 32884 ft | 441 kts | 244° |
| 2026-04-18 04:45 | 39.27394 | 116.25894 | 32885 ft | 436 kts | 258° |
| 2026-04-18 04:45 | 39.26894 | 116.22079 | 32888 ft | 435 kts | 264° |
| 2026-04-18 04:46 | 39.26390 | 116.14468 | 32870 ft | 433 kts | 275° |
| 2026-04-18 04:46 | 39.27072 | 116.10636 | 32864 ft | 414 kts | 296° |
| 2026-04-18 04:46 | 39.28788 | 116.07617 | 32871 ft | 396 kts | 318° |
| 2026-04-18 04:46 | 39.31168 | 116.05737 | 32862 ft | 378 kts | 338° |
| 2026-04-18 04:47 | 39.33726 | 116.04889 | 32873 ft | 360 kts | 348° |
| 2026-04-18 04:47 | 39.36156 | 116.04493 | 32872 ft | 342 kts | 351° |
| 2026-04-18 04:47 | 39.38460 | 116.04241 | 32712 ft | 333 kts | 352° |
| 2026-04-18 04:47 | 39.40773 | 116.04024 | 32118 ft | 337 kts | 352° |
| 2026-04-18 04:48 | 39.43216 | 116.03804 | 31240 ft | 342 kts | 353° |
| 2026-04-18 04:48 | 39.45687 | 116.03579 | 30358 ft | 346 kts | 353° |
| 2026-04-18 04:48 | 39.48118 | 116.03350 | 29509 ft | 350 kts | 353° |
| 2026-04-18 04:48 | 39.50531 | 116.03120 | 28674 ft | 352 kts | 353° |
| 2026-04-18 04:49 | 39.52977 | 116.02884 | 27836 ft | 354 kts | 353° |
| 2026-04-18 04:49 | 39.55444 | 116.02645 | 26999 ft | 356 kts | 353° |
| 2026-04-18 04:49 | 39.57911 | 116.02405 | 26169 ft | 358 kts | 353° |
| 2026-04-18 04:49 | 39.60393 | 116.02165 | 25339 ft | 359 kts | 352° |
| 2026-04-18 04:50 | 39.62878 | 116.01922 | 24501 ft | 359 kts | 353° |
| 2026-04-18 04:50 | 39.65470 | 116.01668 | 23616 ft | 360 kts | 352° |
| 2026-04-18 04:50 | 39.68077 | 116.01408 | 22731 ft | 360 kts | 352° |
| 2026-04-18 04:50 | 39.70727 | 116.01262 | 21844 ft | 362 kts | 2° |
| 2026-04-18 04:51 | 39.73263 | 116.02074 | 20990 ft | 367 kts | 24° |
| 2026-04-18 04:51 | 39.75451 | 116.04083 | 20129 ft | 370 kts | 46° |
| 2026-04-18 04:51 | 39.76924 | 116.07023 | 19282 ft | 371 kts | 69° |
| 2026-04-18 04:51 | 39.77454 | 116.10407 | 18444 ft | 370 kts | 91° |
| 2026-04-18 04:52 | 39.76989 | 116.13805 | 17605 ft | 365 kts | 114° |
| 2026-04-18 04:52 | 39.75579 | 116.16718 | 16766 ft | 357 kts | 137° |
| 2026-04-18 04:52 | 39.73524 | 116.18623 | 15957 ft | 347 kts | 159° |
| 2026-04-18 04:52 | 39.71178 | 116.19621 | 15173 ft | 341 kts | 169° |
| 2026-04-18 04:53 | 39.68760 | 116.20301 | 14368 ft | 337 kts | 172° |
| 2026-04-18 04:53 | 39.66455 | 116.20870 | 13590 ft | 334 kts | 172° |
| 2026-04-18 04:53 | 39.64190 | 116.21416 | 12841 ft | 331 kts | 172° |
| 2026-04-18 04:53 | 39.61962 | 116.21949 | 12091 ft | 327 kts | 172° |
| 2026-04-18 04:54 | 39.59721 | 116.22479 | 11360 ft | 322 kts | 172° |
| 2026-04-18 04:54 | 39.57543 | 116.22990 | 10867 ft | 310 kts | 172° |
| 2026-04-18 04:54 | 39.55468 | 116.23473 | 10588 ft | 292 kts | 172° |
| 2026-04-18 04:54 | 39.53531 | 116.23923 | 10312 ft | 277 kts | 172° |
| 2026-04-18 04:55 | 39.51651 | 116.24366 | 10065 ft | 263 kts | 172° |
| 2026-04-18 04:55 | 39.49792 | 116.24808 | 9844 ft | 251 kts | 172° |
| 2026-04-18 04:55 | 39.48050 | 116.25222 | 9606 ft | 240 kts | 172° |
| 2026-04-18 04:56 | 39.44706 | 116.26013 | 8916 ft | 238 kts | 172° |
| 2026-04-18 04:56 | 39.43053 | 116.26400 | 8543 ft | 239 kts | 172° |
| 2026-04-18 04:56 | 39.41410 | 116.26781 | 8175 ft | 239 kts | 172° |
| 2026-04-18 04:56 | 39.39711 | 116.27173 | 7797 ft | 240 kts | 173° |
| 2026-04-18 04:57 | 39.37971 | 116.27576 | 7285 ft | 241 kts | 172° |
| 2026-04-18 04:57 | 39.36254 | 116.27976 | 6783 ft | 241 kts | 172° |
| 2026-04-18 04:57 | 39.34512 | 116.28400 | 6280 ft | 242 kts | 168° |
| 2026-04-18 04:57 | 39.32943 | 116.29439 | 5763 ft | 250 kts | 140° |
| 2026-04-18 04:58 | 39.31995 | 116.31403 | 5349 ft | 259 kts | 109° |
| 2026-04-18 04:58 | 39.31925 | 116.33831 | 4941 ft | 268 kts | 82° |
| 2026-04-18 04:58 | 39.32427 | 116.36269 | 4546 ft | 270 kts | 76° |
| 2026-04-18 04:58 | 39.33003 | 116.38640 | 4141 ft | 265 kts | 75° |
| 2026-04-18 04:59 | 39.33564 | 116.40938 | 3769 ft | 256 kts | 75° |
| 2026-04-18 04:59 | 39.34110 | 116.43166 | 3410 ft | 245 kts | 75° |
| 2026-04-18 04:59 | 39.34665 | 116.45281 | 3176 ft | 233 kts | 73° |
| 2026-04-18 04:59 | 39.35379 | 116.47175 | 2951 ft | 224 kts | 45° |
| 2026-04-18 05:00 | 39.36802 | 116.47942 | 2617 ft | 218 kts | 355° |
| 2026-04-18 05:00 | 39.38252 | 116.47360 | 2341 ft | 208 kts | 327° |
| 2026-04-18 05:00 | 39.39526 | 116.46386 | 1867 ft | 213 kts | 326° |
| 2026-04-18 05:00 | 39.40755 | 116.45390 | 1642 ft | 198 kts | 321° |
| 2026-04-18 05:01 | 39.41880 | 116.44325 | 1155 ft | 192 kts | 324° |
| 2026-04-18 05:01 | 39.43055 | 116.43732 | 837 ft | 178 kts | 354° |
| 2026-04-18 05:01 | 39.44229 | 116.43591 | 677 ft | 154 kts | 356° |
| 2026-04-18 05:01 | 39.45297 | 116.43451 | 480 ft | 143 kts | 350° |
| 2026-04-18 05:02 | 39.46299 | 116.43257 | 292 ft | 142 kts | 354° |
| 2026-04-18 05:02 | 39.47318 | 116.43100 | 125 ft | 140 kts | 353° |
| 2026-04-18 05:02 | 39.48223 | 116.42963 | 91 ft | 93 kts | 354° |
| 2026-04-18 05:02 | 39.48769 | 116.42874 | 91 ft | 58 kts | 354° |
| 2026-04-18 05:03 | 39.49097 | 116.42805 | 91 ft | 29 kts | 339° |
| 2026-04-18 05:03 | 39.49221 | 116.42708 | 91 ft | 14 kts | 324° |
| 2026-04-18 05:03 | 39.49323 | 116.42616 | 91 ft | 21 kts | 325° |
| 2026-04-18 05:03 | 39.49481 | 116.42480 | 91 ft | 29 kts | 326° |
| 2026-04-18 05:04 | 39.49667 | 116.42396 | 91 ft | 25 kts | 354° |
| 2026-04-18 05:04 | 39.49838 | 116.42372 | 91 ft | 20 kts | 352° |
| 2026-04-18 05:04 | 39.49987 | 116.42345 | 91 ft | 19 kts | 352° |
| 2026-04-18 05:04 | 39.50134 | 116.42323 | 91 ft | 21 kts | 352° |
| 2026-04-18 05:05 | 39.50276 | 116.42301 | 91 ft | 15 kts | 340° |
| 2026-04-18 05:05 | 39.50292 | 116.42150 | 91 ft | 21 kts | 262° |
| 2026-04-18 05:05 | 39.50270 | 116.41930 | 91 ft | 21 kts | 263° |
| 2026-04-18 05:05 | 39.50266 | 116.41830 | 91 ft | 8 kts | 289° |
| 2026-04-18 05:06 | 39.50318 | 116.41791 | 91 ft | 9 kts | 351° |
| 2026-04-18 05:06 | 39.50368 | 116.41786 | 91 ft | 7 kts | 359° |
| 2026-04-18 05:06 | 39.50450 | 116.41773 | 91 ft | 14 kts | 352° |
| 2026-04-18 05:06 | 39.50525 | 116.41790 | 91 ft | 6 kts | 26° |
| 2026-04-18 05:07 | 39.50550 | 116.41824 | 91 ft | 2 kts | 96° |
| 2026-04-18 05:07 | 39.50540 | 116.41866 | 91 ft | 3 kts | 112° |
| 2026-04-18 05:07 | 39.50529 | 116.41897 | 91 ft | 4 kts | 112° |
| 2026-04-18 05:07 | 39.50520 | 116.41924 | 91 ft | 1 kts | 112° |
| 2026-04-18 05:08 | 39.50520 | 116.41925 | 91 ft | 0 kts | 113° |